<?xml version="1.0" encoding="UTF-8" standalone="no" ?>
<gpx xmlns="http://www.topografix.com/GPX/1/1" xmlns:xsi="http://www.w3.org/2001/XMLSchema-instance" xsi:schemaLocation="http://www.topografix.com/GPX/1/1 http://www.topografix.com/GPX/1/1/gpx.xsd" version="1.1" creator="VisuGPX - https://www.visugpx.com">
  <metadata>
    <name>UT53</name>
  </metadata>
  <trk>
    <name><![CDATA[UT53 Étape 1]]></name>
    <extensions>
      <line xmlns="http://www.topografix.com/GPX/gpx_style/0/2">
        <color>0000FF</color>
        <width>4</width>
      </line>
    </extensions>
    <trkseg>
      <trkpt lat="49.03194" lon="7.95014">
        <ele>156.80533581732</ele>
        <time>2021-03-30T11:59:21.000Z</time>
      </trkpt>
      <trkpt lat="49.03194" lon="7.95014">
        <ele>156.80533581732</ele>
        <time>2021-03-30T11:59:21.000Z</time>
      </trkpt>
      <trkpt lat="49.03222" lon="7.95035">
        <ele>157.05721025</ele>
        <time>2021-03-30T11:59:21.010Z</time>
      </trkpt>
      <trkpt lat="49.03257" lon="7.94907">
        <ele>157.83911437379</ele>
        <time>2021-03-30T11:59:21.051Z</time>
      </trkpt>
      <trkpt lat="49.03303" lon="7.9475">
        <ele>158.36853910818</ele>
        <time>2021-03-30T11:59:21.129Z</time>
      </trkpt>
      <trkpt lat="49.03334" lon="7.94655">
        <ele>159.14245364061</ele>
        <time>2021-03-30T11:59:21.231Z</time>
      </trkpt>
      <trkpt lat="49.03339" lon="7.94612">
        <ele>159.64582513478</ele>
        <time>2021-03-30T11:59:21.342Z</time>
      </trkpt>
      <trkpt lat="49.03339" lon="7.94563">
        <ele>159.5577119828</ele>
        <time>2021-03-30T11:59:21.464Z</time>
      </trkpt>
      <trkpt lat="49.03344" lon="7.94552">
        <ele>159.19869814463</ele>
        <time>2021-03-30T11:59:21.589Z</time>
      </trkpt>
      <trkpt lat="49.03363" lon="7.94524">
        <ele>158.72746555949</ele>
        <time>2021-03-30T11:59:21.723Z</time>
      </trkpt>
      <trkpt lat="49.03371" lon="7.94505">
        <ele>158.48775098823</ele>
        <time>2021-03-30T11:59:21.862Z</time>
      </trkpt>
      <trkpt lat="49.03375" lon="7.94487">
        <ele>158.58765816281</ele>
        <time>2021-03-30T11:59:22.005Z</time>
      </trkpt>
      <trkpt lat="49.03373" lon="7.94485">
        <ele>158.93387609668</ele>
        <time>2021-03-30T11:59:22.149Z</time>
      </trkpt>
      <trkpt lat="49.03367" lon="7.94475">
        <ele>159.5920083974</ele>
        <time>2021-03-30T11:59:22.296Z</time>
      </trkpt>
      <trkpt lat="49.03356" lon="7.94471">
        <ele>160.52193505584</ele>
        <time>2021-03-30T11:59:22.447Z</time>
      </trkpt>
      <trkpt lat="49.03352" lon="7.94414">
        <ele>161.96195439222</ele>
        <time>2021-03-30T11:59:22.610Z</time>
      </trkpt>
      <trkpt lat="49.03347" lon="7.94396">
        <ele>163.6152954259</ele>
        <time>2021-03-30T11:59:22.777Z</time>
      </trkpt>
      <trkpt lat="49.03337" lon="7.9436">
        <ele>165.43023750605</ele>
        <time>2021-03-30T11:59:22.953Z</time>
      </trkpt>
      <trkpt lat="49.03318" lon="7.94266">
        <ele>167.46703140212</ele>
        <time>2021-03-30T11:59:23.151Z</time>
      </trkpt>
      <trkpt lat="49.03302" lon="7.9415">
        <ele>169.96773117808</ele>
        <time>2021-03-30T11:59:23.375Z</time>
      </trkpt>
      <trkpt lat="49.03306" lon="7.94074">
        <ele>172.67430257212</ele>
        <time>2021-03-30T11:59:23.615Z</time>
      </trkpt>
      <trkpt lat="49.03298" lon="7.9402">
        <ele>175.5476963765</ele>
        <time>2021-03-30T11:59:23.868Z</time>
      </trkpt>
      <trkpt lat="49.03271" lon="7.93952">
        <ele>178.81252694141</ele>
        <time>2021-03-30T11:59:24.138Z</time>
      </trkpt>
      <trkpt lat="49.03237" lon="7.93713">
        <ele>182.61421802757</ele>
        <time>2021-03-30T11:59:24.462Z</time>
      </trkpt>
      <trkpt lat="49.03237" lon="7.93653">
        <ele>186.45095038908</ele>
        <time>2021-03-30T11:59:24.799Z</time>
      </trkpt>
      <trkpt lat="49.03261" lon="7.93531">
        <ele>190.51445983574</ele>
        <time>2021-03-30T11:59:25.164Z</time>
      </trkpt>
      <trkpt lat="49.03264" lon="7.93473">
        <ele>194.19556987162</ele>
        <time>2021-03-30T11:59:25.542Z</time>
      </trkpt>
      <trkpt lat="49.03265" lon="7.93438">
        <ele>197.73660498472</ele>
        <time>2021-03-30T11:59:25.927Z</time>
      </trkpt>
      <trkpt lat="49.03274" lon="7.93424">
        <ele>201.0407648293</ele>
        <time>2021-03-30T11:59:26.316Z</time>
      </trkpt>
      <trkpt lat="49.03296" lon="7.93334">
        <ele>204.46588696279</ele>
        <time>2021-03-30T11:59:26.727Z</time>
      </trkpt>
      <trkpt lat="49.033" lon="7.93329">
        <ele>207.52088556176</ele>
        <time>2021-03-30T11:59:27.139Z</time>
      </trkpt>
      <trkpt lat="49.03303" lon="7.93324">
        <ele>210.40311604302</ele>
        <time>2021-03-30T11:59:27.553Z</time>
      </trkpt>
      <trkpt lat="49.03314" lon="7.933">
        <ele>213.17845660843</ele>
        <time>2021-03-30T11:59:27.973Z</time>
      </trkpt>
      <trkpt lat="49.03316" lon="7.9328">
        <ele>215.85488666001</ele>
        <time>2021-03-30T11:59:28.398Z</time>
      </trkpt>
      <trkpt lat="49.03282" lon="7.93183">
        <ele>218.63644538023</ele>
        <time>2021-03-30T11:59:28.847Z</time>
      </trkpt>
      <trkpt lat="49.03275" lon="7.93154">
        <ele>221.45545034402</ele>
        <time>2021-03-30T11:59:29.302Z</time>
      </trkpt>
      <trkpt lat="49.03275" lon="7.92983">
        <ele>224.8866183119</ele>
        <time>2021-03-30T11:59:29.795Z</time>
      </trkpt>
      <trkpt lat="49.03278" lon="7.92961">
        <ele>227.91497347019</ele>
        <time>2021-03-30T11:59:30.293Z</time>
      </trkpt>
      <trkpt lat="49.03284" lon="7.92938">
        <ele>230.84845706949</ele>
        <time>2021-03-30T11:59:30.796Z</time>
      </trkpt>
      <trkpt lat="49.03301" lon="7.9289">
        <ele>233.89943951138</ele>
        <time>2021-03-30T11:59:31.311Z</time>
      </trkpt>
      <trkpt lat="49.03305" lon="7.92871">
        <ele>236.58518761844</ele>
        <time>2021-03-30T11:59:31.830Z</time>
      </trkpt>
      <trkpt lat="49.03296" lon="7.92841">
        <ele>239.07018782507</ele>
        <time>2021-03-30T11:59:32.357Z</time>
      </trkpt>
      <trkpt lat="49.03282" lon="7.92814">
        <ele>241.26440477358</ele>
        <time>2021-03-30T11:59:32.891Z</time>
      </trkpt>
      <trkpt lat="49.03298" lon="7.92685">
        <ele>243.30168466198</ele>
        <time>2021-03-30T11:59:33.454Z</time>
      </trkpt>
      <trkpt lat="49.03311" lon="7.92636">
        <ele>244.91782726137</ele>
        <time>2021-03-30T11:59:34.029Z</time>
      </trkpt>
      <trkpt lat="49.03319" lon="7.92623">
        <ele>246.19886868374</ele>
        <time>2021-03-30T11:59:34.607Z</time>
      </trkpt>
      <trkpt lat="49.03348" lon="7.92613">
        <ele>247.19231171819</ele>
        <time>2021-03-30T11:59:35.195Z</time>
      </trkpt>
      <trkpt lat="49.03382" lon="7.92593">
        <ele>247.89376381296</ele>
        <time>2021-03-30T11:59:35.796Z</time>
      </trkpt>
      <trkpt lat="49.03387" lon="7.92575">
        <ele>248.48331087818</ele>
        <time>2021-03-30T11:59:36.401Z</time>
      </trkpt>
      <trkpt lat="49.03384" lon="7.92555">
        <ele>249.01493136524</ele>
        <time>2021-03-30T11:59:37.010Z</time>
      </trkpt>
      <trkpt lat="49.0336" lon="7.92486">
        <ele>249.67879070413</ele>
        <time>2021-03-30T11:59:37.636Z</time>
      </trkpt>
      <trkpt lat="49.03354" lon="7.92457">
        <ele>250.14384045301</ele>
        <time>2021-03-30T11:59:38.269Z</time>
      </trkpt>
      <trkpt lat="49.03351" lon="7.9242">
        <ele>250.54822388505</ele>
        <time>2021-03-30T11:59:38.910Z</time>
      </trkpt>
      <trkpt lat="49.03303" lon="7.92325">
        <ele>251.25544485433</ele>
        <time>2021-03-30T11:59:39.578Z</time>
      </trkpt>
      <trkpt lat="49.03298" lon="7.92298">
        <ele>251.83488902523</ele>
        <time>2021-03-30T11:59:40.252Z</time>
      </trkpt>
      <trkpt lat="49.03304" lon="7.92265">
        <ele>252.46404310865</ele>
        <time>2021-03-30T11:59:40.933Z</time>
      </trkpt>
      <trkpt lat="49.03303" lon="7.92238">
        <ele>253.24277257258</ele>
        <time>2021-03-30T11:59:41.620Z</time>
      </trkpt>
      <trkpt lat="49.03294" lon="7.92224">
        <ele>254.25474446194</ele>
        <time>2021-03-30T11:59:42.311Z</time>
      </trkpt>
      <trkpt lat="49.03235" lon="7.92173">
        <ele>255.6023285536</ele>
        <time>2021-03-30T11:59:43.025Z</time>
      </trkpt>
      <trkpt lat="49.03227" lon="7.92158">
        <ele>256.96918779875</ele>
        <time>2021-03-30T11:59:43.743Z</time>
      </trkpt>
      <trkpt lat="49.03154" lon="7.91964">
        <ele>258.82061700094</ele>
        <time>2021-03-30T11:59:44.510Z</time>
      </trkpt>
      <trkpt lat="49.03146" lon="7.91909">
        <ele>260.78317809916</ele>
        <time>2021-03-30T11:59:45.290Z</time>
      </trkpt>
      <trkpt lat="49.0314" lon="7.91851">
        <ele>262.77963733273</ele>
        <time>2021-03-30T11:59:46.083Z</time>
      </trkpt>
      <trkpt lat="49.03133" lon="7.9182">
        <ele>265.01770968895</ele>
        <time>2021-03-30T11:59:46.883Z</time>
      </trkpt>
      <trkpt lat="49.03085" lon="7.91754">
        <ele>267.74114255569</ele>
        <time>2021-03-30T11:59:47.704Z</time>
      </trkpt>
      <trkpt lat="49.03062" lon="7.91736">
        <ele>270.66780331035</ele>
        <time>2021-03-30T11:59:48.534Z</time>
      </trkpt>
      <trkpt lat="49.03048" lon="7.91699">
        <ele>273.81359800461</ele>
        <time>2021-03-30T11:59:49.373Z</time>
      </trkpt>
      <trkpt lat="49.02988" lon="7.91536">
        <ele>277.26009778802</ele>
        <time>2021-03-30T11:59:50.253Z</time>
      </trkpt>
      <trkpt lat="49.02955" lon="7.9139">
        <ele>280.95956510808</ele>
        <time>2021-03-30T11:59:51.167Z</time>
      </trkpt>
      <trkpt lat="49.02908" lon="7.91127">
        <ele>285.01599745762</ele>
        <time>2021-03-30T11:59:52.141Z</time>
      </trkpt>
      <trkpt lat="49.02875" lon="7.90948">
        <ele>289.51938482914</ele>
        <time>2021-03-30T11:59:53.156Z</time>
      </trkpt>
      <trkpt lat="49.02854" lon="7.90817">
        <ele>294.37696679353</ele>
        <time>2021-03-30T11:59:54.200Z</time>
      </trkpt>
      <trkpt lat="49.02853" lon="7.90783">
        <ele>299.16061343153</ele>
        <time>2021-03-30T11:59:55.252Z</time>
      </trkpt>
      <trkpt lat="49.02837" lon="7.90423">
        <ele>304.96359415797</ele>
        <time>2021-03-30T11:59:56.383Z</time>
      </trkpt>
      <trkpt lat="49.02832" lon="7.90381">
        <ele>310.23361891904</ele>
        <time>2021-03-30T11:59:57.523Z</time>
      </trkpt>
      <trkpt lat="49.02851" lon="7.90374">
        <ele>315.44116220388</ele>
        <time>2021-03-30T11:59:58.670Z</time>
      </trkpt>
      <trkpt lat="49.02854" lon="7.90367">
        <ele>320.64465200991</ele>
        <time>2021-03-30T11:59:59.819Z</time>
      </trkpt>
      <trkpt lat="49.02851" lon="7.90347">
        <ele>325.94339566022</ele>
        <time>2021-03-30T12:00:00.972Z</time>
      </trkpt>
      <trkpt lat="49.02843" lon="7.90229">
        <ele>332.09831405322</ele>
        <time>2021-03-30T12:00:02.151Z</time>
      </trkpt>
      <trkpt lat="49.02835" lon="7.902">
        <ele>337.44648414376</ele>
        <time>2021-03-30T12:00:03.337Z</time>
      </trkpt>
      <trkpt lat="49.02804" lon="7.90143">
        <ele>342.73223806299</ele>
        <time>2021-03-30T12:00:04.539Z</time>
      </trkpt>
      <trkpt lat="49.02771" lon="7.9009">
        <ele>347.52259100207</ele>
        <time>2021-03-30T12:00:05.757Z</time>
      </trkpt>
      <trkpt lat="49.02834" lon="7.90047">
        <ele>352.52927208084</ele>
        <time>2021-03-30T12:00:06.998Z</time>
      </trkpt>
      <trkpt lat="49.02839" lon="7.9004">
        <ele>356.97435361503</ele>
        <time>2021-03-30T12:00:08.241Z</time>
      </trkpt>
      <trkpt lat="49.02827" lon="7.89941">
        <ele>361.39371027941</ele>
        <time>2021-03-30T12:00:09.506Z</time>
      </trkpt>
      <trkpt lat="49.02828" lon="7.8991">
        <ele>365.60379741474</ele>
        <time>2021-03-30T12:00:10.778Z</time>
      </trkpt>
      <trkpt lat="49.02832" lon="7.89893">
        <ele>369.75331516228</ele>
        <time>2021-03-30T12:00:12.054Z</time>
      </trkpt>
      <trkpt lat="49.0286" lon="7.89865">
        <ele>374.00676452367</ele>
        <time>2021-03-30T12:00:13.341Z</time>
      </trkpt>
      <trkpt lat="49.02878" lon="7.89845">
        <ele>378.37066351022</ele>
        <time>2021-03-30T12:00:14.636Z</time>
      </trkpt>
      <trkpt lat="49.02881" lon="7.89844">
        <ele>382.77443044119</ele>
        <time>2021-03-30T12:00:15.932Z</time>
      </trkpt>
      <trkpt lat="49.02888" lon="7.89815">
        <ele>387.52743525478</ele>
        <time>2021-03-30T12:00:17.234Z</time>
      </trkpt>
      <trkpt lat="49.02895" lon="7.89738">
        <ele>392.64300711285</ele>
        <time>2021-03-30T12:00:18.553Z</time>
      </trkpt>
      <trkpt lat="49.02935" lon="7.89562">
        <ele>398.27442914659</ele>
        <time>2021-03-30T12:00:19.913Z</time>
      </trkpt>
      <trkpt lat="49.02941" lon="7.89499">
        <ele>403.61780571691</ele>
        <time>2021-03-30T12:00:21.287Z</time>
      </trkpt>
      <trkpt lat="49.02942" lon="7.89426">
        <ele>409.1953834075</ele>
        <time>2021-03-30T12:00:22.677Z</time>
      </trkpt>
      <trkpt lat="49.02937" lon="7.89356">
        <ele>414.91168759406</ele>
        <time>2021-03-30T12:00:24.083Z</time>
      </trkpt>
      <trkpt lat="49.02918" lon="7.89237">
        <ele>421.18952525459</ele>
        <time>2021-03-30T12:00:25.516Z</time>
      </trkpt>
      <trkpt lat="49.02896" lon="7.89141">
        <ele>427.25541095971</ele>
        <time>2021-03-30T12:00:26.971Z</time>
      </trkpt>
      <trkpt lat="49.02896" lon="7.89141">
        <ele>432.7402341519</ele>
        <time>2021-03-30T12:00:28.426Z</time>
      </trkpt>
      <trkpt lat="49.02906" lon="7.89148">
        <ele>438.13745928362</ele>
        <time>2021-03-30T12:00:29.884Z</time>
      </trkpt>
      <trkpt lat="49.02916" lon="7.89164">
        <ele>443.26592547333</ele>
        <time>2021-03-30T12:00:31.347Z</time>
      </trkpt>
      <trkpt lat="49.02948" lon="7.89172">
        <ele>448.32887917265</ele>
        <time>2021-03-30T12:00:32.821Z</time>
      </trkpt>
      <trkpt lat="49.02945" lon="7.89148">
        <ele>453.33279080079</ele>
        <time>2021-03-30T12:00:34.300Z</time>
      </trkpt>
      <trkpt lat="49.02916" lon="7.89074">
        <ele>458.47219632683</ele>
        <time>2021-03-30T12:00:35.798Z</time>
      </trkpt>
      <trkpt lat="49.02912" lon="7.89045">
        <ele>463.03106579683</ele>
        <time>2021-03-30T12:00:37.303Z</time>
      </trkpt>
      <trkpt lat="49.0289" lon="7.88997">
        <ele>467.12270443427</ele>
        <time>2021-03-30T12:00:38.820Z</time>
      </trkpt>
      <trkpt lat="49.02892" lon="7.88985">
        <ele>470.84838105481</ele>
        <time>2021-03-30T12:00:40.340Z</time>
      </trkpt>
      <trkpt lat="49.02892" lon="7.88969">
        <ele>474.27416724464</ele>
        <time>2021-03-30T12:00:41.864Z</time>
      </trkpt>
      <trkpt lat="49.029" lon="7.88966">
        <ele>477.24965309642</ele>
        <time>2021-03-30T12:00:43.390Z</time>
      </trkpt>
      <trkpt lat="49.0291" lon="7.88973">
        <ele>479.77069398822</ele>
        <time>2021-03-30T12:00:44.920Z</time>
      </trkpt>
      <trkpt lat="49.02922" lon="7.88978">
        <ele>481.9933250558</ele>
        <time>2021-03-30T12:00:46.454Z</time>
      </trkpt>
      <trkpt lat="49.02933" lon="7.88978">
        <ele>483.91915702299</ele>
        <time>2021-03-30T12:00:47.992Z</time>
      </trkpt>
      <trkpt lat="49.02943" lon="7.88983">
        <ele>485.51184228997</ele>
        <time>2021-03-30T12:00:49.534Z</time>
      </trkpt>
      <trkpt lat="49.02953" lon="7.88997">
        <ele>486.82800378681</ele>
        <time>2021-03-30T12:00:51.080Z</time>
      </trkpt>
      <trkpt lat="49.02962" lon="7.89007">
        <ele>488.01540925622</ele>
        <time>2021-03-30T12:00:52.630Z</time>
      </trkpt>
      <trkpt lat="49.02967" lon="7.88998">
        <ele>489.25151711663</ele>
        <time>2021-03-30T12:00:54.182Z</time>
      </trkpt>
      <trkpt lat="49.02963" lon="7.88985">
        <ele>490.54407512537</ele>
        <time>2021-03-30T12:00:55.737Z</time>
      </trkpt>
      <trkpt lat="49.02958" lon="7.88967">
        <ele>491.83299678555</ele>
        <time>2021-03-30T12:00:57.297Z</time>
      </trkpt>
      <trkpt lat="49.02949" lon="7.88936">
        <ele>493.14474356134</ele>
        <time>2021-03-30T12:00:58.864Z</time>
      </trkpt>
      <trkpt lat="49.02936" lon="7.88912">
        <ele>494.48893060256</ele>
        <time>2021-03-30T12:01:00.438Z</time>
      </trkpt>
      <trkpt lat="49.02927" lon="7.88893">
        <ele>495.90498801078</ele>
        <time>2021-03-30T12:01:02.017Z</time>
      </trkpt>
      <trkpt lat="49.02911" lon="7.88872">
        <ele>497.45150824802</ele>
        <time>2021-03-30T12:01:03.603Z</time>
      </trkpt>
      <trkpt lat="49.02898" lon="7.88847">
        <ele>499.084207328</ele>
        <time>2021-03-30T12:01:05.196Z</time>
      </trkpt>
      <trkpt lat="49.02896" lon="7.88824">
        <ele>500.62024858699</ele>
        <time>2021-03-30T12:01:06.794Z</time>
      </trkpt>
      <trkpt lat="49.02899" lon="7.88798">
        <ele>502.10642489258</ele>
        <time>2021-03-30T12:01:08.398Z</time>
      </trkpt>
      <trkpt lat="49.02901" lon="7.88768">
        <ele>503.58105349933</ele>
        <time>2021-03-30T12:01:10.009Z</time>
      </trkpt>
      <trkpt lat="49.02883" lon="7.88738">
        <ele>505.10603487283</ele>
        <time>2021-03-30T12:01:11.629Z</time>
      </trkpt>
      <trkpt lat="49.02872" lon="7.88714">
        <ele>506.44342669002</ele>
        <time>2021-03-30T12:01:13.255Z</time>
      </trkpt>
      <trkpt lat="49.02847" lon="7.88684">
        <ele>507.64839756944</ele>
        <time>2021-03-30T12:01:14.892Z</time>
      </trkpt>
      <trkpt lat="49.02817" lon="7.88634">
        <ele>508.64392043559</ele>
        <time>2021-03-30T12:01:16.544Z</time>
      </trkpt>
      <trkpt lat="49.02798" lon="7.88598">
        <ele>509.26443056771</ele>
        <time>2021-03-30T12:01:18.206Z</time>
      </trkpt>
      <trkpt lat="49.0278" lon="7.88557">
        <ele>509.36578063934</ele>
        <time>2021-03-30T12:01:19.878Z</time>
      </trkpt>
      <trkpt lat="49.0277" lon="7.88537">
        <ele>508.9386364169</ele>
        <time>2021-03-30T12:01:21.556Z</time>
      </trkpt>
      <trkpt lat="49.0277" lon="7.88517">
        <ele>507.98313445836</ele>
        <time>2021-03-30T12:01:23.239Z</time>
      </trkpt>
      <trkpt lat="49.02776" lon="7.88489">
        <ele>506.43138925929</ele>
        <time>2021-03-30T12:01:24.928Z</time>
      </trkpt>
      <trkpt lat="49.0278" lon="7.88451">
        <ele>504.3624565589</ele>
        <time>2021-03-30T12:01:26.625Z</time>
      </trkpt>
      <trkpt lat="49.0278" lon="7.88412">
        <ele>501.87480851722</ele>
        <time>2021-03-30T12:01:28.331Z</time>
      </trkpt>
      <trkpt lat="49.0278" lon="7.88411">
        <ele>499.42544531664</ele>
        <time>2021-03-30T12:01:30.037Z</time>
      </trkpt>
      <trkpt lat="49.02774" lon="7.88375">
        <ele>496.46036819442</ele>
        <time>2021-03-30T12:01:31.751Z</time>
      </trkpt>
      <trkpt lat="49.02764" lon="7.88351">
        <ele>493.43517324287</ele>
        <time>2021-03-30T12:01:33.471Z</time>
      </trkpt>
      <trkpt lat="49.02754" lon="7.88341">
        <ele>490.2977634389</ele>
        <time>2021-03-30T12:01:35.196Z</time>
      </trkpt>
      <trkpt lat="49.02732" lon="7.88335">
        <ele>487.06918641997</ele>
        <time>2021-03-30T12:01:36.928Z</time>
      </trkpt>
      <trkpt lat="49.0271" lon="7.88338">
        <ele>483.87611505804</ele>
        <time>2021-03-30T12:01:38.667Z</time>
      </trkpt>
      <trkpt lat="49.02692" lon="7.88346">
        <ele>480.70598437017</ele>
        <time>2021-03-30T12:01:40.412Z</time>
      </trkpt>
      <trkpt lat="49.02678" lon="7.88357">
        <ele>477.60617191062</ele>
        <time>2021-03-30T12:01:42.163Z</time>
      </trkpt>
      <trkpt lat="49.02662" lon="7.88386">
        <ele>474.66063269747</ele>
        <time>2021-03-30T12:01:43.922Z</time>
      </trkpt>
      <trkpt lat="49.02648" lon="7.88417">
        <ele>471.76069479178</ele>
        <time>2021-03-30T12:01:45.689Z</time>
      </trkpt>
      <trkpt lat="49.02633" lon="7.88449">
        <ele>468.70546402167</ele>
        <time>2021-03-30T12:01:47.465Z</time>
      </trkpt>
      <trkpt lat="49.02616" lon="7.88478">
        <ele>465.46418159821</ele>
        <time>2021-03-30T12:01:49.249Z</time>
      </trkpt>
      <trkpt lat="49.026" lon="7.88495">
        <ele>462.17675838622</ele>
        <time>2021-03-30T12:01:51.040Z</time>
      </trkpt>
      <trkpt lat="49.02584" lon="7.8851">
        <ele>458.90341888476</ele>
        <time>2021-03-30T12:01:52.837Z</time>
      </trkpt>
      <trkpt lat="49.0256" lon="7.88525">
        <ele>455.55976130905</ele>
        <time>2021-03-30T12:01:54.643Z</time>
      </trkpt>
      <trkpt lat="49.02544" lon="7.88529">
        <ele>452.37500206323</ele>
        <time>2021-03-30T12:01:56.454Z</time>
      </trkpt>
      <trkpt lat="49.02526" lon="7.88533">
        <ele>449.3342384194</ele>
        <time>2021-03-30T12:01:58.271Z</time>
      </trkpt>
      <trkpt lat="49.02509" lon="7.88533">
        <ele>446.38174441255</ele>
        <time>2021-03-30T12:02:00.094Z</time>
      </trkpt>
      <trkpt lat="49.02501" lon="7.88516">
        <ele>443.39097539649</ele>
        <time>2021-03-30T12:02:01.922Z</time>
      </trkpt>
      <trkpt lat="49.02498" lon="7.88503">
        <ele>440.55476802225</ele>
        <time>2021-03-30T12:02:03.753Z</time>
      </trkpt>
      <trkpt lat="49.025" lon="7.88486">
        <ele>437.79855554057</ele>
        <time>2021-03-30T12:02:05.587Z</time>
      </trkpt>
      <trkpt lat="49.02508" lon="7.88457">
        <ele>435.05064976317</ele>
        <time>2021-03-30T12:02:07.428Z</time>
      </trkpt>
      <trkpt lat="49.02499" lon="7.88462">
        <ele>432.51696406072</ele>
        <time>2021-03-30T12:02:09.272Z</time>
      </trkpt>
      <trkpt lat="49.02485" lon="7.88465">
        <ele>430.02474011245</ele>
        <time>2021-03-30T12:02:11.121Z</time>
      </trkpt>
      <trkpt lat="49.02471" lon="7.88463">
        <ele>427.60525096469</ele>
        <time>2021-03-30T12:02:12.975Z</time>
      </trkpt>
      <trkpt lat="49.02461" lon="7.88458">
        <ele>425.1664470051</ele>
        <time>2021-03-30T12:02:14.833Z</time>
      </trkpt>
      <trkpt lat="49.02443" lon="7.88432">
        <ele>422.62941225195</ele>
        <time>2021-03-30T12:02:16.699Z</time>
      </trkpt>
      <trkpt lat="49.0243" lon="7.88392">
        <ele>419.89764499962</ele>
        <time>2021-03-30T12:02:18.575Z</time>
      </trkpt>
      <trkpt lat="49.02416" lon="7.88346">
        <ele>417.18187844893</ele>
        <time>2021-03-30T12:02:20.462Z</time>
      </trkpt>
      <trkpt lat="49.0241" lon="7.88319">
        <ele>414.63553875531</ele>
        <time>2021-03-30T12:02:22.355Z</time>
      </trkpt>
      <trkpt lat="49.0239" lon="7.88247">
        <ele>412.08213790028</ele>
        <time>2021-03-30T12:02:24.265Z</time>
      </trkpt>
      <trkpt lat="49.02379" lon="7.88201">
        <ele>409.81678154795</ele>
        <time>2021-03-30T12:02:26.186Z</time>
      </trkpt>
      <trkpt lat="49.02367" lon="7.88135">
        <ele>407.70371557576</ele>
        <time>2021-03-30T12:02:28.122Z</time>
      </trkpt>
      <trkpt lat="49.02362" lon="7.88084">
        <ele>405.5789155919</ele>
        <time>2021-03-30T12:02:30.069Z</time>
      </trkpt>
      <trkpt lat="49.0236" lon="7.88036">
        <ele>403.62797602891</ele>
        <time>2021-03-30T12:02:32.027Z</time>
      </trkpt>
      <trkpt lat="49.02355" lon="7.87946">
        <ele>401.64023700607</ele>
        <time>2021-03-30T12:02:34.005Z</time>
      </trkpt>
      <trkpt lat="49.02357" lon="7.87898">
        <ele>399.83011873314</ele>
        <time>2021-03-30T12:02:35.993Z</time>
      </trkpt>
      <trkpt lat="49.02357" lon="7.87861">
        <ele>397.97763447703</ele>
        <time>2021-03-30T12:02:37.989Z</time>
      </trkpt>
      <trkpt lat="49.0235" lon="7.87822">
        <ele>396.33523417386</ele>
        <time>2021-03-30T12:02:39.994Z</time>
      </trkpt>
      <trkpt lat="49.02344" lon="7.8778">
        <ele>394.66666710566</ele>
        <time>2021-03-30T12:02:42.009Z</time>
      </trkpt>
      <trkpt lat="49.02337" lon="7.87755">
        <ele>392.99626827979</ele>
        <time>2021-03-30T12:02:44.029Z</time>
      </trkpt>
      <trkpt lat="49.02327" lon="7.87729">
        <ele>391.43178593388</ele>
        <time>2021-03-30T12:02:46.056Z</time>
      </trkpt>
      <trkpt lat="49.02283" lon="7.87646">
        <ele>389.63310186036</ele>
        <time>2021-03-30T12:02:48.107Z</time>
      </trkpt>
      <trkpt lat="49.02276" lon="7.87634">
        <ele>388.02195205125</ele>
        <time>2021-03-30T12:02:50.161Z</time>
      </trkpt>
      <trkpt lat="49.02264" lon="7.87617">
        <ele>386.40288894448</ele>
        <time>2021-03-30T12:02:52.220Z</time>
      </trkpt>
      <trkpt lat="49.02259" lon="7.87592">
        <ele>384.70728507258</ele>
        <time>2021-03-30T12:02:54.285Z</time>
      </trkpt>
      <trkpt lat="49.02249" lon="7.87581">
        <ele>383.19077954076</ele>
        <time>2021-03-30T12:02:56.354Z</time>
      </trkpt>
      <trkpt lat="49.02243" lon="7.87557">
        <ele>381.49211701062</ele>
        <time>2021-03-30T12:02:58.429Z</time>
      </trkpt>
      <trkpt lat="49.02241" lon="7.87524">
        <ele>379.62979159498</ele>
        <time>2021-03-30T12:03:00.511Z</time>
      </trkpt>
      <trkpt lat="49.02241" lon="7.8748">
        <ele>377.65738640474</ele>
        <time>2021-03-30T12:03:02.603Z</time>
      </trkpt>
      <trkpt lat="49.02227" lon="7.87404">
        <ele>376.13331388302</ele>
        <time>2021-03-30T12:03:04.712Z</time>
      </trkpt>
      <trkpt lat="49.02227" lon="7.87378">
        <ele>374.8127762387</ele>
        <time>2021-03-30T12:03:06.827Z</time>
      </trkpt>
      <trkpt lat="49.02234" lon="7.87347">
        <ele>373.48058078747</ele>
        <time>2021-03-30T12:03:08.949Z</time>
      </trkpt>
      <trkpt lat="49.02258" lon="7.87274">
        <ele>372.30658444287</ele>
        <time>2021-03-30T12:03:11.089Z</time>
      </trkpt>
      <trkpt lat="49.02281" lon="7.87209">
        <ele>371.42122277584</ele>
        <time>2021-03-30T12:03:13.245Z</time>
      </trkpt>
      <trkpt lat="49.02294" lon="7.87158">
        <ele>370.51359093089</ele>
        <time>2021-03-30T12:03:15.413Z</time>
      </trkpt>
      <trkpt lat="49.02295" lon="7.87102">
        <ele>369.63170905877</ele>
        <time>2021-03-30T12:03:17.594Z</time>
      </trkpt>
      <trkpt lat="49.02293" lon="7.87044">
        <ele>368.88300603429</ele>
        <time>2021-03-30T12:03:19.787Z</time>
      </trkpt>
      <trkpt lat="49.02287" lon="7.87">
        <ele>368.47106054925</ele>
        <time>2021-03-30T12:03:21.990Z</time>
      </trkpt>
      <trkpt lat="49.02274" lon="7.86968">
        <ele>368.12301719619</ele>
        <time>2021-03-30T12:03:24.201Z</time>
      </trkpt>
      <trkpt lat="49.0226" lon="7.86935">
        <ele>367.74780812679</ele>
        <time>2021-03-30T12:03:26.421Z</time>
      </trkpt>
      <trkpt lat="49.02242" lon="7.86903">
        <ele>367.31247766702</ele>
        <time>2021-03-30T12:03:28.650Z</time>
      </trkpt>
      <trkpt lat="49.02222" lon="7.86874">
        <ele>366.78676770439</ele>
        <time>2021-03-30T12:03:30.888Z</time>
      </trkpt>
      <trkpt lat="49.02203" lon="7.86854">
        <ele>366.31273068622</ele>
        <time>2021-03-30T12:03:33.134Z</time>
      </trkpt>
      <trkpt lat="49.0218" lon="7.8684">
        <ele>365.84872972091</ele>
        <time>2021-03-30T12:03:35.388Z</time>
      </trkpt>
      <trkpt lat="49.02162" lon="7.86829">
        <ele>365.3435238156</ele>
        <time>2021-03-30T12:03:37.649Z</time>
      </trkpt>
      <trkpt lat="49.02128" lon="7.86804">
        <ele>364.72007303183</ele>
        <time>2021-03-30T12:03:39.922Z</time>
      </trkpt>
      <trkpt lat="49.02102" lon="7.86791">
        <ele>364.23375947141</ele>
        <time>2021-03-30T12:03:42.204Z</time>
      </trkpt>
      <trkpt lat="49.0209" lon="7.86779">
        <ele>363.94205226477</ele>
        <time>2021-03-30T12:03:44.491Z</time>
      </trkpt>
      <trkpt lat="49.02083" lon="7.86765">
        <ele>363.7291689791</ele>
        <time>2021-03-30T12:03:46.782Z</time>
      </trkpt>
      <trkpt lat="49.02078" lon="7.86742">
        <ele>363.63261880837</ele>
        <time>2021-03-30T12:03:49.079Z</time>
      </trkpt>
      <trkpt lat="49.02079" lon="7.86722">
        <ele>363.55434119132</ele>
        <time>2021-03-30T12:03:51.380Z</time>
      </trkpt>
      <trkpt lat="49.02101" lon="7.86661">
        <ele>363.57362822659</ele>
        <time>2021-03-30T12:03:53.696Z</time>
      </trkpt>
      <trkpt lat="49.02118" lon="7.86619">
        <ele>363.61441639912</ele>
        <time>2021-03-30T12:03:56.023Z</time>
      </trkpt>
      <trkpt lat="49.02132" lon="7.86575">
        <ele>363.61024644206</ele>
        <time>2021-03-30T12:03:58.361Z</time>
      </trkpt>
      <trkpt lat="49.02145" lon="7.86543">
        <ele>363.38518480886</ele>
        <time>2021-03-30T12:04:00.707Z</time>
      </trkpt>
      <trkpt lat="49.0216" lon="7.86513">
        <ele>363.01302615777</ele>
        <time>2021-03-30T12:04:03.061Z</time>
      </trkpt>
      <trkpt lat="49.0217" lon="7.86486">
        <ele>362.48724941213</ele>
        <time>2021-03-30T12:04:05.422Z</time>
      </trkpt>
      <trkpt lat="49.02172" lon="7.8646">
        <ele>361.89304923694</ele>
        <time>2021-03-30T12:04:07.789Z</time>
      </trkpt>
      <trkpt lat="49.02169" lon="7.8642">
        <ele>361.1963236974</ele>
        <time>2021-03-30T12:04:10.165Z</time>
      </trkpt>
      <trkpt lat="49.02169" lon="7.86398">
        <ele>360.29502117851</ele>
        <time>2021-03-30T12:04:12.545Z</time>
      </trkpt>
      <trkpt lat="49.02179" lon="7.86394">
        <ele>359.14765300571</ele>
        <time>2021-03-30T12:04:14.929Z</time>
      </trkpt>
      <trkpt lat="49.02164" lon="7.86309">
        <ele>357.7572897226</ele>
        <time>2021-03-30T12:04:17.332Z</time>
      </trkpt>
      <trkpt lat="49.02152" lon="7.86264">
        <ele>356.37284731083</ele>
        <time>2021-03-30T12:04:19.746Z</time>
      </trkpt>
      <trkpt lat="49.02144" lon="7.86243">
        <ele>355.02816347354</ele>
        <time>2021-03-30T12:04:22.165Z</time>
      </trkpt>
      <trkpt lat="49.02102" lon="7.86164">
        <ele>353.42710874899</ele>
        <time>2021-03-30T12:04:24.606Z</time>
      </trkpt>
      <trkpt lat="49.02071" lon="7.86097">
        <ele>352.08291678441</ele>
        <time>2021-03-30T12:04:27.065Z</time>
      </trkpt>
      <trkpt lat="49.0204" lon="7.8604">
        <ele>350.76458770376</ele>
        <time>2021-03-30T12:04:29.540Z</time>
      </trkpt>
      <trkpt lat="49.02036" lon="7.86018">
        <ele>349.83294545547</ele>
        <time>2021-03-30T12:04:32.020Z</time>
      </trkpt>
      <trkpt lat="49.02033" lon="7.85988">
        <ele>349.1925750348</ele>
        <time>2021-03-30T12:04:34.507Z</time>
      </trkpt>
      <trkpt lat="49.02025" lon="7.85965">
        <ele>348.8484607134</ele>
        <time>2021-03-30T12:04:37.000Z</time>
      </trkpt>
      <trkpt lat="49.02007" lon="7.85932">
        <ele>348.73969120755</ele>
        <time>2021-03-30T12:04:39.502Z</time>
      </trkpt>
      <trkpt lat="49.02" lon="7.85912">
        <ele>348.87425051035</ele>
        <time>2021-03-30T12:04:42.009Z</time>
      </trkpt>
      <trkpt lat="49.01995" lon="7.8588">
        <ele>349.24333770602</ele>
        <time>2021-03-30T12:04:44.523Z</time>
      </trkpt>
      <trkpt lat="49.01997" lon="7.85827">
        <ele>349.89783141449</ele>
        <time>2021-03-30T12:04:47.049Z</time>
      </trkpt>
      <trkpt lat="49.01998" lon="7.85791">
        <ele>350.77891154255</ele>
        <time>2021-03-30T12:04:49.583Z</time>
      </trkpt>
      <trkpt lat="49.01999" lon="7.85721">
        <ele>351.7974600215</ele>
        <time>2021-03-30T12:04:52.132Z</time>
      </trkpt>
      <trkpt lat="49.01998" lon="7.85698">
        <ele>352.76279879615</ele>
        <time>2021-03-30T12:04:54.686Z</time>
      </trkpt>
      <trkpt lat="49.01995" lon="7.85673">
        <ele>353.78030801873</ele>
        <time>2021-03-30T12:04:57.246Z</time>
      </trkpt>
      <trkpt lat="49.01991" lon="7.85651">
        <ele>354.8386731359</ele>
        <time>2021-03-30T12:04:59.811Z</time>
      </trkpt>
      <trkpt lat="49.01995" lon="7.85639">
        <ele>355.87558051982</ele>
        <time>2021-03-30T12:05:02.379Z</time>
      </trkpt>
      <trkpt lat="49.01996" lon="7.8563">
        <ele>356.85276627846</ele>
        <time>2021-03-30T12:05:04.949Z</time>
      </trkpt>
      <trkpt lat="49.01986" lon="7.85598">
        <ele>357.7787375761</ele>
        <time>2021-03-30T12:05:07.527Z</time>
      </trkpt>
      <trkpt lat="49.01972" lon="7.85551">
        <ele>358.64634787086</ele>
        <time>2021-03-30T12:05:10.116Z</time>
      </trkpt>
      <trkpt lat="49.01966" lon="7.85533">
        <ele>359.34531602141</ele>
        <time>2021-03-30T12:05:12.709Z</time>
      </trkpt>
      <trkpt lat="49.01957" lon="7.85506">
        <ele>359.88449250716</ele>
        <time>2021-03-30T12:05:15.309Z</time>
      </trkpt>
      <trkpt lat="49.01942" lon="7.85455">
        <ele>360.19314959599</ele>
        <time>2021-03-30T12:05:17.921Z</time>
      </trkpt>
      <trkpt lat="49.01923" lon="7.85392">
        <ele>360.4164454821</ele>
        <time>2021-03-30T12:05:20.549Z</time>
      </trkpt>
      <trkpt lat="49.01892" lon="7.85293">
        <ele>360.65254730543</ele>
        <time>2021-03-30T12:05:23.201Z</time>
      </trkpt>
      <trkpt lat="49.0189" lon="7.85286">
        <ele>360.6957497704</ele>
        <time>2021-03-30T12:05:25.854Z</time>
      </trkpt>
      <trkpt lat="49.01872" lon="7.85227">
        <ele>360.70409117451</ele>
        <time>2021-03-30T12:05:28.522Z</time>
      </trkpt>
      <trkpt lat="49.0187" lon="7.85218">
        <ele>360.51773863205</ele>
        <time>2021-03-30T12:05:31.192Z</time>
      </trkpt>
      <trkpt lat="49.01862" lon="7.85191">
        <ele>360.20527338224</ele>
        <time>2021-03-30T12:05:33.868Z</time>
      </trkpt>
      <trkpt lat="49.01852" lon="7.85158">
        <ele>359.75007429791</ele>
        <time>2021-03-30T12:05:36.552Z</time>
      </trkpt>
      <trkpt lat="49.01849" lon="7.85148">
        <ele>359.23475573075</ele>
        <time>2021-03-30T12:05:39.238Z</time>
      </trkpt>
      <trkpt lat="49.0184" lon="7.85123">
        <ele>358.65074813148</ele>
        <time>2021-03-30T12:05:41.931Z</time>
      </trkpt>
      <trkpt lat="49.01834" lon="7.85106">
        <ele>358.02441085842</ele>
        <time>2021-03-30T12:05:44.628Z</time>
      </trkpt>
      <trkpt lat="49.01814" lon="7.85062">
        <ele>357.3106710702</ele>
        <time>2021-03-30T12:05:47.337Z</time>
      </trkpt>
      <trkpt lat="49.01791" lon="7.85016">
        <ele>356.66506114217</ele>
        <time>2021-03-30T12:05:50.058Z</time>
      </trkpt>
      <trkpt lat="49.01767" lon="7.84968">
        <ele>356.11918363334</ele>
        <time>2021-03-30T12:05:52.793Z</time>
      </trkpt>
      <trkpt lat="49.0178" lon="7.84963">
        <ele>355.83778768814</ele>
        <time>2021-03-30T12:05:55.532Z</time>
      </trkpt>
      <trkpt lat="49.01794" lon="7.8496">
        <ele>355.67107297035</ele>
        <time>2021-03-30T12:05:58.276Z</time>
      </trkpt>
      <trkpt lat="49.01811" lon="7.84954">
        <ele>355.68161241086</ele>
        <time>2021-03-30T12:06:01.026Z</time>
      </trkpt>
      <trkpt lat="49.01821" lon="7.8495">
        <ele>355.78550369234</ele>
        <time>2021-03-30T12:06:03.779Z</time>
      </trkpt>
      <trkpt lat="49.01827" lon="7.84949">
        <ele>356.00293835071</ele>
        <time>2021-03-30T12:06:06.534Z</time>
      </trkpt>
      <trkpt lat="49.01838" lon="7.84945">
        <ele>356.36257551825</ele>
        <time>2021-03-30T12:06:09.293Z</time>
      </trkpt>
      <trkpt lat="49.01851" lon="7.84937">
        <ele>356.87339674563</ele>
        <time>2021-03-30T12:06:12.056Z</time>
      </trkpt>
      <trkpt lat="49.01859" lon="7.84931">
        <ele>357.45634510184</ele>
        <time>2021-03-30T12:06:14.822Z</time>
      </trkpt>
      <trkpt lat="49.01862" lon="7.8493">
        <ele>358.13088955992</ele>
        <time>2021-03-30T12:06:17.589Z</time>
      </trkpt>
      <trkpt lat="49.01879" lon="7.84918">
        <ele>358.92832594317</ele>
        <time>2021-03-30T12:06:20.363Z</time>
      </trkpt>
      <trkpt lat="49.01892" lon="7.84905">
        <ele>359.82153230215</ele>
        <time>2021-03-30T12:06:23.142Z</time>
      </trkpt>
      <trkpt lat="49.01907" lon="7.84887">
        <ele>360.75638603258</ele>
        <time>2021-03-30T12:06:25.927Z</time>
      </trkpt>
      <trkpt lat="49.01918" lon="7.84874">
        <ele>361.74245006775</ele>
        <time>2021-03-30T12:06:28.717Z</time>
      </trkpt>
      <trkpt lat="49.01929" lon="7.84867">
        <ele>362.78462454853</ele>
        <time>2021-03-30T12:06:31.511Z</time>
      </trkpt>
      <trkpt lat="49.01934" lon="7.84866">
        <ele>363.84409254966</ele>
        <time>2021-03-30T12:06:34.307Z</time>
      </trkpt>
      <trkpt lat="49.01938" lon="7.84866">
        <ele>364.92106315153</ele>
        <time>2021-03-30T12:06:37.104Z</time>
      </trkpt>
      <trkpt lat="49.01941" lon="7.84868">
        <ele>365.99390803306</ele>
        <time>2021-03-30T12:06:39.902Z</time>
      </trkpt>
      <trkpt lat="49.01959" lon="7.84821">
        <ele>367.03965091551</ele>
        <time>2021-03-30T12:06:42.712Z</time>
      </trkpt>
      <trkpt lat="49.0201" lon="7.84756">
        <ele>367.98487840457</ele>
        <time>2021-03-30T12:06:45.544Z</time>
      </trkpt>
      <trkpt lat="49.02058" lon="7.84694">
        <ele>368.73185431988</ele>
        <time>2021-03-30T12:06:48.397Z</time>
      </trkpt>
      <trkpt lat="49.02127" lon="7.84598">
        <ele>369.4395950973</ele>
        <time>2021-03-30T12:06:51.281Z</time>
      </trkpt>
      <trkpt lat="49.02204" lon="7.84469">
        <ele>370.78006588458</ele>
        <time>2021-03-30T12:06:54.204Z</time>
      </trkpt>
      <trkpt lat="49.02204" lon="7.84469">
        <ele>371.33260358319</ele>
        <time>2021-03-30T12:06:57.127Z</time>
      </trkpt>
      <trkpt lat="49.02241" lon="7.84402">
        <ele>371.94132135831</ele>
        <time>2021-03-30T12:07:00.069Z</time>
      </trkpt>
      <trkpt lat="49.02288" lon="7.84337">
        <ele>371.90145650204</ele>
        <time>2021-03-30T12:07:03.032Z</time>
      </trkpt>
      <trkpt lat="49.02322" lon="7.84246">
        <ele>371.40441054796</ele>
        <time>2021-03-30T12:07:06.018Z</time>
      </trkpt>
      <trkpt lat="49.02367" lon="7.84147">
        <ele>370.64842469748</ele>
        <time>2021-03-30T12:07:09.030Z</time>
      </trkpt>
      <trkpt lat="49.02367" lon="7.84147">
        <ele>369.70947784736</ele>
        <time>2021-03-30T12:07:12.042Z</time>
      </trkpt>
      <trkpt lat="49.02395" lon="7.84099">
        <ele>368.14200167784</ele>
        <time>2021-03-30T12:07:15.069Z</time>
      </trkpt>
      <trkpt lat="49.02417" lon="7.84073">
        <ele>366.43411481684</ele>
        <time>2021-03-30T12:07:18.105Z</time>
      </trkpt>
      <trkpt lat="49.0247" lon="7.84046">
        <ele>364.36656127251</ele>
        <time>2021-03-30T12:07:21.159Z</time>
      </trkpt>
      <trkpt lat="49.02491" lon="7.83995">
        <ele>362.20796335397</ele>
        <time>2021-03-30T12:07:24.227Z</time>
      </trkpt>
      <trkpt lat="49.02514" lon="7.83944">
        <ele>359.67790898368</ele>
        <time>2021-03-30T12:07:27.308Z</time>
      </trkpt>
      <trkpt lat="49.02526" lon="7.83914">
        <ele>356.80664054169</ele>
        <time>2021-03-30T12:07:30.397Z</time>
      </trkpt>
      <trkpt lat="49.02541" lon="7.83879">
        <ele>353.51164566645</ele>
        <time>2021-03-30T12:07:33.495Z</time>
      </trkpt>
      <trkpt lat="49.02551" lon="7.83872">
        <ele>349.89947537608</ele>
        <time>2021-03-30T12:07:36.597Z</time>
      </trkpt>
      <trkpt lat="49.02561" lon="7.83856">
        <ele>346.00433076457</ele>
        <time>2021-03-30T12:07:39.704Z</time>
      </trkpt>
      <trkpt lat="49.02575" lon="7.83827">
        <ele>341.77719226414</ele>
        <time>2021-03-30T12:07:42.818Z</time>
      </trkpt>
      <trkpt lat="49.02587" lon="7.83792">
        <ele>337.35499143282</ele>
        <time>2021-03-30T12:07:45.941Z</time>
      </trkpt>
      <trkpt lat="49.026" lon="7.83742">
        <ele>332.81100600538</ele>
        <time>2021-03-30T12:07:49.076Z</time>
      </trkpt>
      <trkpt lat="49.02611" lon="7.83686">
        <ele>328.05917204199</ele>
        <time>2021-03-30T12:07:52.224Z</time>
      </trkpt>
      <trkpt lat="49.02618" lon="7.83634">
        <ele>323.45203680268</ele>
        <time>2021-03-30T12:07:55.383Z</time>
      </trkpt>
      <trkpt lat="49.02623" lon="7.83583">
        <ele>318.97782863998</ele>
        <time>2021-03-30T12:07:58.554Z</time>
      </trkpt>
      <trkpt lat="49.02626" lon="7.83533">
        <ele>314.58385497365</ele>
        <time>2021-03-30T12:08:01.736Z</time>
      </trkpt>
      <trkpt lat="49.02626" lon="7.83488">
        <ele>310.55594176727</ele>
        <time>2021-03-30T12:08:04.928Z</time>
      </trkpt>
      <trkpt lat="49.02625" lon="7.83434">
        <ele>306.6516921175</ele>
        <time>2021-03-30T12:08:08.131Z</time>
      </trkpt>
      <trkpt lat="49.02625" lon="7.83368">
        <ele>302.96313307737</ele>
        <time>2021-03-30T12:08:11.349Z</time>
      </trkpt>
      <trkpt lat="49.02625" lon="7.83305">
        <ele>299.83148308116</ele>
        <time>2021-03-30T12:08:14.581Z</time>
      </trkpt>
      <trkpt lat="49.02625" lon="7.83243">
        <ele>297.12851748975</ele>
        <time>2021-03-30T12:08:17.826Z</time>
      </trkpt>
      <trkpt lat="49.02623" lon="7.83207">
        <ele>294.96536820711</ele>
        <time>2021-03-30T12:08:21.079Z</time>
      </trkpt>
      <trkpt lat="49.0262" lon="7.83182">
        <ele>293.2093789061</ele>
        <time>2021-03-30T12:08:24.338Z</time>
      </trkpt>
      <trkpt lat="49.02612" lon="7.83143">
        <ele>291.80088771691</ele>
        <time>2021-03-30T12:08:27.606Z</time>
      </trkpt>
      <trkpt lat="49.02605" lon="7.83115">
        <ele>290.76660021792</ele>
        <time>2021-03-30T12:08:30.880Z</time>
      </trkpt>
      <trkpt lat="49.02601" lon="7.83098">
        <ele>290.08583874452</ele>
        <time>2021-03-30T12:08:34.158Z</time>
      </trkpt>
      <trkpt lat="49.02602" lon="7.83086">
        <ele>289.69221217846</ele>
        <time>2021-03-30T12:08:37.439Z</time>
      </trkpt>
      <trkpt lat="49.02607" lon="7.83071">
        <ele>289.53371323392</ele>
        <time>2021-03-30T12:08:40.724Z</time>
      </trkpt>
      <trkpt lat="49.02617" lon="7.83058">
        <ele>289.56069355454</ele>
        <time>2021-03-30T12:08:44.013Z</time>
      </trkpt>
      <trkpt lat="49.02631" lon="7.83048">
        <ele>289.67055556163</ele>
        <time>2021-03-30T12:08:47.307Z</time>
      </trkpt>
      <trkpt lat="49.0265" lon="7.83037">
        <ele>289.8030557706</ele>
        <time>2021-03-30T12:08:50.608Z</time>
      </trkpt>
      <trkpt lat="49.02669" lon="7.83032">
        <ele>289.82216323046</ele>
        <time>2021-03-30T12:08:53.915Z</time>
      </trkpt>
      <trkpt lat="49.02691" lon="7.83028">
        <ele>289.68477217674</ele>
        <time>2021-03-30T12:08:57.230Z</time>
      </trkpt>
      <trkpt lat="49.02716" lon="7.83026">
        <ele>289.36177694652</ele>
        <time>2021-03-30T12:09:00.553Z</time>
      </trkpt>
      <trkpt lat="49.02715" lon="7.8302">
        <ele>289.01319563173</ele>
        <time>2021-03-30T12:09:03.877Z</time>
      </trkpt>
      <trkpt lat="49.02714" lon="7.83013">
        <ele>288.49217440241</ele>
        <time>2021-03-30T12:09:07.203Z</time>
      </trkpt>
      <trkpt lat="49.02716" lon="7.82996">
        <ele>287.72916028028</ele>
        <time>2021-03-30T12:09:10.533Z</time>
      </trkpt>
      <trkpt lat="49.02717" lon="7.82987">
        <ele>286.81017294891</ele>
        <time>2021-03-30T12:09:13.865Z</time>
      </trkpt>
      <trkpt lat="49.02719" lon="7.82977">
        <ele>285.69724990889</ele>
        <time>2021-03-30T12:09:17.199Z</time>
      </trkpt>
      <trkpt lat="49.0272" lon="7.82965">
        <ele>284.36969326041</ele>
        <time>2021-03-30T12:09:20.536Z</time>
      </trkpt>
      <trkpt lat="49.02722" lon="7.82951">
        <ele>282.91077684041</ele>
        <time>2021-03-30T12:09:23.876Z</time>
      </trkpt>
      <trkpt lat="49.02723" lon="7.82936">
        <ele>281.28725399218</ele>
        <time>2021-03-30T12:09:27.219Z</time>
      </trkpt>
      <trkpt lat="49.02725" lon="7.82913">
        <ele>279.55273315143</ele>
        <time>2021-03-30T12:09:30.567Z</time>
      </trkpt>
      <trkpt lat="49.02729" lon="7.82873">
        <ele>277.65937567186</ele>
        <time>2021-03-30T12:09:33.924Z</time>
      </trkpt>
      <trkpt lat="49.02735" lon="7.82825">
        <ele>275.69780436865</ele>
        <time>2021-03-30T12:09:37.292Z</time>
      </trkpt>
      <trkpt lat="49.02742" lon="7.82782">
        <ele>273.76300080595</ele>
        <time>2021-03-30T12:09:40.670Z</time>
      </trkpt>
      <trkpt lat="49.0275" lon="7.82743">
        <ele>271.90802579427</ele>
        <time>2021-03-30T12:09:44.057Z</time>
      </trkpt>
      <trkpt lat="49.02754" lon="7.82721">
        <ele>270.11329739567</ele>
        <time>2021-03-30T12:09:47.449Z</time>
      </trkpt>
      <trkpt lat="49.02757" lon="7.82705">
        <ele>268.38356321918</ele>
        <time>2021-03-30T12:09:50.844Z</time>
      </trkpt>
      <trkpt lat="49.02761" lon="7.82685">
        <ele>266.7593600615</ele>
        <time>2021-03-30T12:09:54.244Z</time>
      </trkpt>
      <trkpt lat="49.02763" lon="7.82675">
        <ele>265.27901408189</ele>
        <time>2021-03-30T12:09:57.646Z</time>
      </trkpt>
      <trkpt lat="49.02765" lon="7.82667">
        <ele>263.90678176454</ele>
        <time>2021-03-30T12:10:01.050Z</time>
      </trkpt>
      <trkpt lat="49.02767" lon="7.82663">
        <ele>262.66904287196</ele>
        <time>2021-03-30T12:10:04.455Z</time>
      </trkpt>
      <trkpt lat="49.0277" lon="7.82657">
        <ele>261.55157444501</ele>
        <time>2021-03-30T12:10:07.862Z</time>
      </trkpt>
      <trkpt lat="49.02772" lon="7.82644">
        <ele>260.54064866274</ele>
        <time>2021-03-30T12:10:11.272Z</time>
      </trkpt>
      <trkpt lat="49.02772" lon="7.82635">
        <ele>259.67250088301</ele>
        <time>2021-03-30T12:10:14.684Z</time>
      </trkpt>
      <trkpt lat="49.02772" lon="7.82627">
        <ele>258.92262549869</ele>
        <time>2021-03-30T12:10:18.097Z</time>
      </trkpt>
      <trkpt lat="49.02773" lon="7.82619">
        <ele>258.27309335713</ele>
        <time>2021-03-30T12:10:21.512Z</time>
      </trkpt>
      <trkpt lat="49.02775" lon="7.82614">
        <ele>257.75018899293</ele>
        <time>2021-03-30T12:10:24.928Z</time>
      </trkpt>
      <trkpt lat="49.02776" lon="7.8261">
        <ele>257.31862610104</ele>
        <time>2021-03-30T12:10:28.345Z</time>
      </trkpt>
      <trkpt lat="49.02779" lon="7.82604">
        <ele>256.96530582257</ele>
        <time>2021-03-30T12:10:31.764Z</time>
      </trkpt>
      <trkpt lat="49.02782" lon="7.826">
        <ele>256.68332860626</ele>
        <time>2021-03-30T12:10:35.184Z</time>
      </trkpt>
      <trkpt lat="49.02785" lon="7.82595">
        <ele>256.46183436535</ele>
        <time>2021-03-30T12:10:38.606Z</time>
      </trkpt>
      <trkpt lat="49.02787" lon="7.82591">
        <ele>256.29274919618</ele>
        <time>2021-03-30T12:10:42.029Z</time>
      </trkpt>
      <trkpt lat="49.02791" lon="7.82585">
        <ele>256.162053859</ele>
        <time>2021-03-30T12:10:45.454Z</time>
      </trkpt>
      <trkpt lat="49.02791" lon="7.82582">
        <ele>256.07652173741</ele>
        <time>2021-03-30T12:10:48.879Z</time>
      </trkpt>
      <trkpt lat="49.0279" lon="7.82572">
        <ele>256.01236806478</ele>
        <time>2021-03-30T12:10:52.307Z</time>
      </trkpt>
      <trkpt lat="49.02791" lon="7.82568">
        <ele>255.98065042588</ele>
        <time>2021-03-30T12:10:55.736Z</time>
      </trkpt>
      <trkpt lat="49.02792" lon="7.82564">
        <ele>255.97403306737</ele>
        <time>2021-03-30T12:10:59.165Z</time>
      </trkpt>
      <trkpt lat="49.02792" lon="7.82559">
        <ele>256.00850527706</ele>
        <time>2021-03-30T12:11:02.596Z</time>
      </trkpt>
      <trkpt lat="49.0279" lon="7.82551">
        <ele>256.06782642771</ele>
        <time>2021-03-30T12:11:06.028Z</time>
      </trkpt>
      <trkpt lat="49.02801" lon="7.82556">
        <ele>256.10483593885</ele>
        <time>2021-03-30T12:11:09.464Z</time>
      </trkpt>
      <trkpt lat="49.0281" lon="7.82565">
        <ele>256.14466983176</ele>
        <time>2021-03-30T12:11:12.904Z</time>
      </trkpt>
      <trkpt lat="49.02813" lon="7.8257">
        <ele>256.24039796506</ele>
        <time>2021-03-30T12:11:16.345Z</time>
      </trkpt>
      <trkpt lat="49.02816" lon="7.82575">
        <ele>256.35881332408</ele>
        <time>2021-03-30T12:11:19.788Z</time>
      </trkpt>
      <trkpt lat="49.02823" lon="7.82583">
        <ele>256.5134213689</ele>
        <time>2021-03-30T12:11:23.234Z</time>
      </trkpt>
      <trkpt lat="49.02827" lon="7.82586">
        <ele>256.69157619729</ele>
        <time>2021-03-30T12:11:26.681Z</time>
      </trkpt>
      <trkpt lat="49.02831" lon="7.82589">
        <ele>256.90450940835</ele>
        <time>2021-03-30T12:11:30.130Z</time>
      </trkpt>
      <trkpt lat="49.02836" lon="7.82593">
        <ele>257.15945196619</ele>
        <time>2021-03-30T12:11:33.581Z</time>
      </trkpt>
      <trkpt lat="49.0284" lon="7.82595">
        <ele>257.45904099487</ele>
        <time>2021-03-30T12:11:37.033Z</time>
      </trkpt>
      <trkpt lat="49.02844" lon="7.82596">
        <ele>257.80778419833</ele>
        <time>2021-03-30T12:11:40.486Z</time>
      </trkpt>
      <trkpt lat="49.02848" lon="7.82597">
        <ele>258.21218522246</ele>
        <time>2021-03-30T12:11:43.941Z</time>
      </trkpt>
      <trkpt lat="49.02853" lon="7.82597">
        <ele>258.68721637906</ele>
        <time>2021-03-30T12:11:47.397Z</time>
      </trkpt>
      <trkpt lat="49.02857" lon="7.82597">
        <ele>259.22627614933</ele>
        <time>2021-03-30T12:11:50.854Z</time>
      </trkpt>
      <trkpt lat="49.02862" lon="7.82596">
        <ele>259.83985996439</ele>
        <time>2021-03-30T12:11:54.313Z</time>
      </trkpt>
      <trkpt lat="49.02866" lon="7.82595">
        <ele>260.52700595969</ele>
        <time>2021-03-30T12:11:57.774Z</time>
      </trkpt>
      <trkpt lat="49.02872" lon="7.82594">
        <ele>261.29649773956</ele>
        <time>2021-03-30T12:12:01.237Z</time>
      </trkpt>
      <trkpt lat="49.02878" lon="7.82592">
        <ele>262.14674898683</ele>
        <time>2021-03-30T12:12:04.702Z</time>
      </trkpt>
      <trkpt lat="49.02887" lon="7.82589">
        <ele>263.08436975977</ele>
        <time>2021-03-30T12:12:08.170Z</time>
      </trkpt>
      <trkpt lat="49.02895" lon="7.82587">
        <ele>264.08535202471</ele>
        <time>2021-03-30T12:12:11.641Z</time>
      </trkpt>
      <trkpt lat="49.02905" lon="7.82581">
        <ele>265.12188700221</ele>
        <time>2021-03-30T12:12:15.115Z</time>
      </trkpt>
      <trkpt lat="49.02916" lon="7.82575">
        <ele>266.23711640303</ele>
        <time>2021-03-30T12:12:18.593Z</time>
      </trkpt>
      <trkpt lat="49.02932" lon="7.82564">
        <ele>267.39110628567</ele>
        <time>2021-03-30T12:12:22.077Z</time>
      </trkpt>
      <trkpt lat="49.02948" lon="7.82551">
        <ele>268.51974178974</ele>
        <time>2021-03-30T12:12:25.567Z</time>
      </trkpt>
      <trkpt lat="49.02966" lon="7.82532">
        <ele>269.60917116945</ele>
        <time>2021-03-30T12:12:29.064Z</time>
      </trkpt>
      <trkpt lat="49.02986" lon="7.82508">
        <ele>270.61524047503</ele>
        <time>2021-03-30T12:12:32.570Z</time>
      </trkpt>
      <trkpt lat="49.03" lon="7.82487">
        <ele>271.55008828731</ele>
        <time>2021-03-30T12:12:36.082Z</time>
      </trkpt>
      <trkpt lat="49.03012" lon="7.8247">
        <ele>272.35189652978</ele>
        <time>2021-03-30T12:12:39.600Z</time>
      </trkpt>
      <trkpt lat="49.03024" lon="7.82448">
        <ele>272.9996990539</ele>
        <time>2021-03-30T12:12:43.124Z</time>
      </trkpt>
      <trkpt lat="49.03035" lon="7.82426">
        <ele>273.58292344644</ele>
        <time>2021-03-30T12:12:46.654Z</time>
      </trkpt>
      <trkpt lat="49.03047" lon="7.82404">
        <ele>274.04110797865</ele>
        <time>2021-03-30T12:12:50.190Z</time>
      </trkpt>
      <trkpt lat="49.03055" lon="7.82391">
        <ele>274.40442829367</ele>
        <time>2021-03-30T12:12:53.730Z</time>
      </trkpt>
      <trkpt lat="49.03062" lon="7.82376">
        <ele>274.65539162814</ele>
        <time>2021-03-30T12:12:57.274Z</time>
      </trkpt>
      <trkpt lat="49.03068" lon="7.82364">
        <ele>274.80206920972</ele>
        <time>2021-03-30T12:13:00.821Z</time>
      </trkpt>
      <trkpt lat="49.03074" lon="7.82352">
        <ele>274.83975950439</ele>
        <time>2021-03-30T12:13:04.372Z</time>
      </trkpt>
      <trkpt lat="49.03076" lon="7.82348">
        <ele>274.80858258973</ele>
        <time>2021-03-30T12:13:07.924Z</time>
      </trkpt>
      <trkpt lat="49.03079" lon="7.82343">
        <ele>274.71032533074</ele>
        <time>2021-03-30T12:13:11.477Z</time>
      </trkpt>
      <trkpt lat="49.03082" lon="7.82339">
        <ele>274.56237271452</ele>
        <time>2021-03-30T12:13:15.032Z</time>
      </trkpt>
      <trkpt lat="49.03087" lon="7.82333">
        <ele>274.36599011435</ele>
        <time>2021-03-30T12:13:18.589Z</time>
      </trkpt>
      <trkpt lat="49.03091" lon="7.82329">
        <ele>274.12940335555</ele>
        <time>2021-03-30T12:13:22.148Z</time>
      </trkpt>
      <trkpt lat="49.03095" lon="7.82324">
        <ele>273.86394477823</ele>
        <time>2021-03-30T12:13:25.708Z</time>
      </trkpt>
      <trkpt lat="49.03099" lon="7.82321">
        <ele>273.58295680396</ele>
        <time>2021-03-30T12:13:29.270Z</time>
      </trkpt>
      <trkpt lat="49.03103" lon="7.82318">
        <ele>273.29170576737</ele>
        <time>2021-03-30T12:13:32.833Z</time>
      </trkpt>
      <trkpt lat="49.03108" lon="7.82314">
        <ele>273.01142034185</ele>
        <time>2021-03-30T12:13:36.398Z</time>
      </trkpt>
      <trkpt lat="49.03113" lon="7.82311">
        <ele>272.71988351079</ele>
        <time>2021-03-30T12:13:39.965Z</time>
      </trkpt>
      <trkpt lat="49.03117" lon="7.82308">
        <ele>272.4220538029</ele>
        <time>2021-03-30T12:13:43.533Z</time>
      </trkpt>
      <trkpt lat="49.03122" lon="7.82305">
        <ele>272.11568521775</ele>
        <time>2021-03-30T12:13:47.103Z</time>
      </trkpt>
      <trkpt lat="49.03127" lon="7.82303">
        <ele>271.79815338302</ele>
        <time>2021-03-30T12:13:50.675Z</time>
      </trkpt>
      <trkpt lat="49.03132" lon="7.823">
        <ele>271.44122676071</ele>
        <time>2021-03-30T12:13:54.249Z</time>
      </trkpt>
      <trkpt lat="49.03137" lon="7.82299">
        <ele>271.10032028664</ele>
        <time>2021-03-30T12:13:57.824Z</time>
      </trkpt>
      <trkpt lat="49.03142" lon="7.82299">
        <ele>270.77454321231</ele>
        <time>2021-03-30T12:14:01.401Z</time>
      </trkpt>
      <trkpt lat="49.03146" lon="7.82299">
        <ele>270.46191676492</ele>
        <time>2021-03-30T12:14:04.979Z</time>
      </trkpt>
      <trkpt lat="49.0315" lon="7.82299">
        <ele>270.15602056418</ele>
        <time>2021-03-30T12:14:08.559Z</time>
      </trkpt>
      <trkpt lat="49.03154" lon="7.82299">
        <ele>269.85772768146</ele>
        <time>2021-03-30T12:14:12.140Z</time>
      </trkpt>
      <trkpt lat="49.03158" lon="7.82299">
        <ele>269.55705416596</ele>
        <time>2021-03-30T12:14:15.722Z</time>
      </trkpt>
      <trkpt lat="49.03162" lon="7.823">
        <ele>269.25733423035</ele>
        <time>2021-03-30T12:14:19.306Z</time>
      </trkpt>
      <trkpt lat="49.03166" lon="7.82301">
        <ele>268.9714480438</ele>
        <time>2021-03-30T12:14:22.891Z</time>
      </trkpt>
      <trkpt lat="49.03171" lon="7.82302">
        <ele>268.68610738348</ele>
        <time>2021-03-30T12:14:26.478Z</time>
      </trkpt>
      <trkpt lat="49.03175" lon="7.82304">
        <ele>268.41053592838</ele>
        <time>2021-03-30T12:14:30.066Z</time>
      </trkpt>
      <trkpt lat="49.03184" lon="7.82309">
        <ele>268.13807862292</ele>
        <time>2021-03-30T12:14:33.657Z</time>
      </trkpt>
      <trkpt lat="49.03188" lon="7.82313">
        <ele>267.88847237751</ele>
        <time>2021-03-30T12:14:37.250Z</time>
      </trkpt>
      <trkpt lat="49.03199" lon="7.82321">
        <ele>267.63905235783</ele>
        <time>2021-03-30T12:14:40.847Z</time>
      </trkpt>
      <trkpt lat="49.03205" lon="7.82325">
        <ele>267.37713119633</ele>
        <time>2021-03-30T12:14:44.446Z</time>
      </trkpt>
      <trkpt lat="49.03211" lon="7.82328">
        <ele>267.10238255628</ele>
        <time>2021-03-30T12:14:48.047Z</time>
      </trkpt>
      <trkpt lat="49.03216" lon="7.82331">
        <ele>266.80736398955</ele>
        <time>2021-03-30T12:14:51.650Z</time>
      </trkpt>
      <trkpt lat="49.03221" lon="7.82332">
        <ele>266.49351551045</ele>
        <time>2021-03-30T12:14:55.255Z</time>
      </trkpt>
      <trkpt lat="49.03231" lon="7.82331">
        <ele>266.15540884119</ele>
        <time>2021-03-30T12:14:58.863Z</time>
      </trkpt>
      <trkpt lat="49.03236" lon="7.8233">
        <ele>265.82107557378</ele>
        <time>2021-03-30T12:15:02.473Z</time>
      </trkpt>
      <trkpt lat="49.0324" lon="7.82328">
        <ele>265.47715325416</ele>
        <time>2021-03-30T12:15:06.084Z</time>
      </trkpt>
      <trkpt lat="49.03243" lon="7.82325">
        <ele>265.13082804289</ele>
        <time>2021-03-30T12:15:09.696Z</time>
      </trkpt>
      <trkpt lat="49.03247" lon="7.82322">
        <ele>264.78787095563</ele>
        <time>2021-03-30T12:15:13.310Z</time>
      </trkpt>
      <trkpt lat="49.03252" lon="7.82318">
        <ele>264.4531510026</ele>
        <time>2021-03-30T12:15:16.926Z</time>
      </trkpt>
      <trkpt lat="49.03256" lon="7.82315">
        <ele>264.14436507666</ele>
        <time>2021-03-30T12:15:20.543Z</time>
      </trkpt>
      <trkpt lat="49.03259" lon="7.82312">
        <ele>263.87244041385</ele>
        <time>2021-03-30T12:15:24.161Z</time>
      </trkpt>
      <trkpt lat="49.03263" lon="7.82308">
        <ele>263.64378851239</ele>
        <time>2021-03-30T12:15:27.781Z</time>
      </trkpt>
      <trkpt lat="49.03268" lon="7.82302">
        <ele>263.47910124083</ele>
        <time>2021-03-30T12:15:31.403Z</time>
      </trkpt>
      <trkpt lat="49.03273" lon="7.82298">
        <ele>263.36861298487</ele>
        <time>2021-03-30T12:15:35.027Z</time>
      </trkpt>
      <trkpt lat="49.03277" lon="7.82293">
        <ele>263.30853907789</ele>
        <time>2021-03-30T12:15:38.653Z</time>
      </trkpt>
      <trkpt lat="49.03284" lon="7.82288">
        <ele>263.30948983634</ele>
        <time>2021-03-30T12:15:42.281Z</time>
      </trkpt>
      <trkpt lat="49.0329" lon="7.82284">
        <ele>263.38777697233</ele>
        <time>2021-03-30T12:15:45.911Z</time>
      </trkpt>
      <trkpt lat="49.03295" lon="7.82281">
        <ele>263.54278772201</ele>
        <time>2021-03-30T12:15:49.543Z</time>
      </trkpt>
      <trkpt lat="49.03301" lon="7.82278">
        <ele>263.80183407411</ele>
        <time>2021-03-30T12:15:53.177Z</time>
      </trkpt>
      <trkpt lat="49.03308" lon="7.82274">
        <ele>264.15571779779</ele>
        <time>2021-03-30T12:15:56.814Z</time>
      </trkpt>
      <trkpt lat="49.03314" lon="7.8227">
        <ele>264.5887251871</ele>
        <time>2021-03-30T12:16:00.453Z</time>
      </trkpt>
      <trkpt lat="49.03321" lon="7.82267">
        <ele>265.12584979627</ele>
        <time>2021-03-30T12:16:04.095Z</time>
      </trkpt>
      <trkpt lat="49.03329" lon="7.82262">
        <ele>265.80618598779</ele>
        <time>2021-03-30T12:16:07.739Z</time>
      </trkpt>
      <trkpt lat="49.03339" lon="7.82255">
        <ele>266.61164236963</ele>
        <time>2021-03-30T12:16:11.387Z</time>
      </trkpt>
      <trkpt lat="49.03349" lon="7.82246">
        <ele>267.48728653208</ele>
        <time>2021-03-30T12:16:15.039Z</time>
      </trkpt>
      <trkpt lat="49.03364" lon="7.82226">
        <ele>268.46290070257</ele>
        <time>2021-03-30T12:16:18.697Z</time>
      </trkpt>
      <trkpt lat="49.0337" lon="7.82207">
        <ele>269.53142517739</ele>
        <time>2021-03-30T12:16:22.360Z</time>
      </trkpt>
      <trkpt lat="49.03386" lon="7.82204">
        <ele>270.71827395583</ele>
        <time>2021-03-30T12:16:26.028Z</time>
      </trkpt>
      <trkpt lat="49.03393" lon="7.82201">
        <ele>271.97622143382</ele>
        <time>2021-03-30T12:16:29.699Z</time>
      </trkpt>
      <trkpt lat="49.03404" lon="7.82192">
        <ele>273.33063649552</ele>
        <time>2021-03-30T12:16:33.374Z</time>
      </trkpt>
      <trkpt lat="49.03414" lon="7.82182">
        <ele>274.83391809431</ele>
        <time>2021-03-30T12:16:37.053Z</time>
      </trkpt>
      <trkpt lat="49.03423" lon="7.82174">
        <ele>276.36319581268</ele>
        <time>2021-03-30T12:16:40.736Z</time>
      </trkpt>
      <trkpt lat="49.0343" lon="7.82168">
        <ele>277.93840977416</ele>
        <time>2021-03-30T12:16:44.421Z</time>
      </trkpt>
      <trkpt lat="49.03442" lon="7.82166">
        <ele>279.62601404237</ele>
        <time>2021-03-30T12:16:48.110Z</time>
      </trkpt>
      <trkpt lat="49.03448" lon="7.82161">
        <ele>281.25244417433</ele>
        <time>2021-03-30T12:16:51.802Z</time>
      </trkpt>
      <trkpt lat="49.03451" lon="7.82143">
        <ele>282.79218776281</ele>
        <time>2021-03-30T12:16:55.498Z</time>
      </trkpt>
      <trkpt lat="49.03458" lon="7.82118">
        <ele>284.43589544882</ele>
        <time>2021-03-30T12:16:59.200Z</time>
      </trkpt>
      <trkpt lat="49.03479" lon="7.82069">
        <ele>286.09884892719</ele>
        <time>2021-03-30T12:17:02.914Z</time>
      </trkpt>
      <trkpt lat="49.03497" lon="7.81994">
        <ele>287.60451729997</ele>
        <time>2021-03-30T12:17:06.646Z</time>
      </trkpt>
      <trkpt lat="49.03515" lon="7.81917">
        <ele>288.85590024416</ele>
        <time>2021-03-30T12:17:10.396Z</time>
      </trkpt>
      <trkpt lat="49.03524" lon="7.81869">
        <ele>290.05054589626</ele>
        <time>2021-03-30T12:17:14.157Z</time>
      </trkpt>
      <trkpt lat="49.03545" lon="7.81828">
        <ele>291.15002598006</ele>
        <time>2021-03-30T12:17:17.929Z</time>
      </trkpt>
      <trkpt lat="49.03576" lon="7.81788">
        <ele>292.18763430244</ele>
        <time>2021-03-30T12:17:21.715Z</time>
      </trkpt>
      <trkpt lat="49.03623" lon="7.81743">
        <ele>293.22445632022</ele>
        <time>2021-03-30T12:17:25.519Z</time>
      </trkpt>
      <trkpt lat="49.0365" lon="7.8172">
        <ele>294.17796387963</ele>
        <time>2021-03-30T12:17:29.334Z</time>
      </trkpt>
      <trkpt lat="49.03654" lon="7.81716">
        <ele>294.97447859822</ele>
        <time>2021-03-30T12:17:33.150Z</time>
      </trkpt>
      <trkpt lat="49.03661" lon="7.81708">
        <ele>295.74863893865</ele>
        <time>2021-03-30T12:17:36.969Z</time>
      </trkpt>
      <trkpt lat="49.03671" lon="7.81699">
        <ele>296.41331298987</ele>
        <time>2021-03-30T12:17:40.792Z</time>
      </trkpt>
      <trkpt lat="49.03683" lon="7.81693">
        <ele>296.97279088921</ele>
        <time>2021-03-30T12:17:44.619Z</time>
      </trkpt>
      <trkpt lat="49.03689" lon="7.81695">
        <ele>297.49663225156</ele>
        <time>2021-03-30T12:17:48.448Z</time>
      </trkpt>
      <trkpt lat="49.03695" lon="7.81695">
        <ele>297.93575161939</ele>
        <time>2021-03-30T12:17:52.279Z</time>
      </trkpt>
      <trkpt lat="49.037" lon="7.81692">
        <ele>298.26416045987</ele>
        <time>2021-03-30T12:17:56.112Z</time>
      </trkpt>
      <trkpt lat="49.03705" lon="7.81684">
        <ele>298.43511136787</ele>
        <time>2021-03-30T12:17:59.948Z</time>
      </trkpt>
      <trkpt lat="49.0371" lon="7.81672">
        <ele>298.51836999919</ele>
        <time>2021-03-30T12:18:03.787Z</time>
      </trkpt>
      <trkpt lat="49.03715" lon="7.81665">
        <ele>298.59675389544</ele>
        <time>2021-03-30T12:18:07.628Z</time>
      </trkpt>
      <trkpt lat="49.03732" lon="7.81659">
        <ele>298.63431002292</ele>
        <time>2021-03-30T12:18:11.475Z</time>
      </trkpt>
      <trkpt lat="49.03767" lon="7.81648">
        <ele>298.67863568876</ele>
        <time>2021-03-30T12:18:15.334Z</time>
      </trkpt>
      <trkpt lat="49.03795" lon="7.81643">
        <ele>298.40129845159</ele>
        <time>2021-03-30T12:18:19.202Z</time>
      </trkpt>
      <trkpt lat="49.03824" lon="7.81651">
        <ele>297.91146048853</ele>
        <time>2021-03-30T12:18:23.080Z</time>
      </trkpt>
      <trkpt lat="49.03846" lon="7.81659">
        <ele>297.30546899736</ele>
        <time>2021-03-30T12:18:26.966Z</time>
      </trkpt>
      <trkpt lat="49.03858" lon="7.81664">
        <ele>296.63891282427</ele>
        <time>2021-03-30T12:18:30.855Z</time>
      </trkpt>
      <trkpt lat="49.03877" lon="7.8166">
        <ele>295.82015305819</ele>
        <time>2021-03-30T12:18:34.751Z</time>
      </trkpt>
      <trkpt lat="49.03902" lon="7.81654">
        <ele>294.93594479745</ele>
        <time>2021-03-30T12:18:38.655Z</time>
      </trkpt>
      <trkpt lat="49.03907" lon="7.81654">
        <ele>294.17839062105</ele>
        <time>2021-03-30T12:18:42.561Z</time>
      </trkpt>
      <trkpt lat="49.03912" lon="7.81651">
        <ele>293.43225292342</ele>
        <time>2021-03-30T12:18:46.469Z</time>
      </trkpt>
      <trkpt lat="49.03915" lon="7.81644">
        <ele>292.72279866325</ele>
        <time>2021-03-30T12:18:50.379Z</time>
      </trkpt>
      <trkpt lat="49.03922" lon="7.81629">
        <ele>292.08809659936</ele>
        <time>2021-03-30T12:18:54.293Z</time>
      </trkpt>
      <trkpt lat="49.03952" lon="7.81596">
        <ele>291.63646881593</ele>
        <time>2021-03-30T12:18:58.219Z</time>
      </trkpt>
      <trkpt lat="49.03974" lon="7.81567">
        <ele>291.30317000309</ele>
        <time>2021-03-30T12:19:02.155Z</time>
      </trkpt>
      <trkpt lat="49.04037" lon="7.8147">
        <ele>291.13155707854</ele>
        <time>2021-03-30T12:19:06.121Z</time>
      </trkpt>
      <trkpt lat="49.04049" lon="7.81456">
        <ele>290.99504674904</ele>
        <time>2021-03-30T12:19:10.092Z</time>
      </trkpt>
      <trkpt lat="49.04062" lon="7.81443">
        <ele>291.05277013744</ele>
        <time>2021-03-30T12:19:14.068Z</time>
      </trkpt>
      <trkpt lat="49.04075" lon="7.81436">
        <ele>291.24057950755</ele>
        <time>2021-03-30T12:19:18.048Z</time>
      </trkpt>
      <trkpt lat="49.041" lon="7.81412">
        <ele>291.67413619098</ele>
        <time>2021-03-30T12:19:22.039Z</time>
      </trkpt>
      <trkpt lat="49.0411" lon="7.814">
        <ele>292.21800911407</ele>
        <time>2021-03-30T12:19:26.034Z</time>
      </trkpt>
      <trkpt lat="49.04117" lon="7.81391">
        <ele>292.93134252179</ele>
        <time>2021-03-30T12:19:30.032Z</time>
      </trkpt>
      <trkpt lat="49.04124" lon="7.81383">
        <ele>293.74033461155</ele>
        <time>2021-03-30T12:19:34.033Z</time>
      </trkpt>
      <trkpt lat="49.04146" lon="7.81376">
        <ele>294.75232303931</ele>
        <time>2021-03-30T12:19:38.041Z</time>
      </trkpt>
      <trkpt lat="49.04186" lon="7.81371">
        <ele>295.93889825281</ele>
        <time>2021-03-30T12:19:42.063Z</time>
      </trkpt>
      <trkpt lat="49.04217" lon="7.81374">
        <ele>297.10352922789</ele>
        <time>2021-03-30T12:19:46.095Z</time>
      </trkpt>
      <trkpt lat="49.04262" lon="7.81386">
        <ele>298.27767665839</ele>
        <time>2021-03-30T12:19:50.142Z</time>
      </trkpt>
      <trkpt lat="49.0428" lon="7.81389">
        <ele>299.57511893562</ele>
        <time>2021-03-30T12:19:54.195Z</time>
      </trkpt>
      <trkpt lat="49.04302" lon="7.81384">
        <ele>300.94021726284</ele>
        <time>2021-03-30T12:19:58.256Z</time>
      </trkpt>
      <trkpt lat="49.04319" lon="7.81362">
        <ele>302.58835771641</ele>
        <time>2021-03-30T12:20:02.324Z</time>
      </trkpt>
      <trkpt lat="49.04326" lon="7.81349">
        <ele>304.33701716314</ele>
        <time>2021-03-30T12:20:06.396Z</time>
      </trkpt>
      <trkpt lat="49.04339" lon="7.81339">
        <ele>306.1128059411</ele>
        <time>2021-03-30T12:20:10.473Z</time>
      </trkpt>
      <trkpt lat="49.04372" lon="7.81324">
        <ele>307.97532972914</ele>
        <time>2021-03-30T12:20:14.561Z</time>
      </trkpt>
      <trkpt lat="49.04397" lon="7.81318">
        <ele>309.7064282802</ele>
        <time>2021-03-30T12:20:18.658Z</time>
      </trkpt>
      <trkpt lat="49.04427" lon="7.81316">
        <ele>311.38419966635</ele>
        <time>2021-03-30T12:20:22.765Z</time>
      </trkpt>
      <trkpt lat="49.0445" lon="7.81319">
        <ele>312.91195459936</ele>
        <time>2021-03-30T12:20:26.879Z</time>
      </trkpt>
      <trkpt lat="49.04478" lon="7.81328">
        <ele>314.25618534763</ele>
        <time>2021-03-30T12:20:31.003Z</time>
      </trkpt>
      <trkpt lat="49.04499" lon="7.81332">
        <ele>315.42944946904</ele>
        <time>2021-03-30T12:20:35.134Z</time>
      </trkpt>
      <trkpt lat="49.04516" lon="7.81328">
        <ele>316.49820788456</ele>
        <time>2021-03-30T12:20:39.271Z</time>
      </trkpt>
      <trkpt lat="49.04528" lon="7.81324">
        <ele>317.40263216466</ele>
        <time>2021-03-30T12:20:43.412Z</time>
      </trkpt>
      <trkpt lat="49.04535" lon="7.81314">
        <ele>318.16945258757</ele>
        <time>2021-03-30T12:20:47.556Z</time>
      </trkpt>
      <trkpt lat="49.04539" lon="7.813">
        <ele>318.85975642393</ele>
        <time>2021-03-30T12:20:51.703Z</time>
      </trkpt>
      <trkpt lat="49.04541" lon="7.81295">
        <ele>319.33098924215</ele>
        <time>2021-03-30T12:20:55.852Z</time>
      </trkpt>
      <trkpt lat="49.04542" lon="7.81291">
        <ele>319.6837293934</ele>
        <time>2021-03-30T12:21:00.001Z</time>
      </trkpt>
      <trkpt lat="49.04554" lon="7.81293">
        <ele>319.78325230769</ele>
        <time>2021-03-30T12:21:04.154Z</time>
      </trkpt>
      <trkpt lat="49.04573" lon="7.81289">
        <ele>319.78970462538</ele>
        <time>2021-03-30T12:21:08.314Z</time>
      </trkpt>
      <trkpt lat="49.04589" lon="7.81277">
        <ele>319.95478755031</ele>
        <time>2021-03-30T12:21:12.480Z</time>
      </trkpt>
      <trkpt lat="49.04608" lon="7.81267">
        <ele>320.21496151277</ele>
        <time>2021-03-30T12:21:16.653Z</time>
      </trkpt>
      <trkpt lat="49.04625" lon="7.81263">
        <ele>320.47176987778</ele>
        <time>2021-03-30T12:21:20.831Z</time>
      </trkpt>
      <trkpt lat="49.0464" lon="7.81263">
        <ele>320.81064516937</ele>
        <time>2021-03-30T12:21:25.014Z</time>
      </trkpt>
      <trkpt lat="49.04668" lon="7.8127">
        <ele>321.19819845774</ele>
        <time>2021-03-30T12:21:29.207Z</time>
      </trkpt>
      <trkpt lat="49.0469" lon="7.81274">
        <ele>321.64373941128</ele>
        <time>2021-03-30T12:21:33.407Z</time>
      </trkpt>
      <trkpt lat="49.04703" lon="7.81275">
        <ele>322.14045049153</ele>
        <time>2021-03-30T12:21:37.611Z</time>
      </trkpt>
      <trkpt lat="49.0471" lon="7.81276">
        <ele>322.70637910543</ele>
        <time>2021-03-30T12:21:41.818Z</time>
      </trkpt>
      <trkpt lat="49.0473" lon="7.81265">
        <ele>323.53719854746</ele>
        <time>2021-03-30T12:21:46.032Z</time>
      </trkpt>
      <trkpt lat="49.04758" lon="7.81259">
        <ele>324.47027329938</ele>
        <time>2021-03-30T12:21:50.255Z</time>
      </trkpt>
      <trkpt lat="49.0478" lon="7.81252">
        <ele>325.3273473731</ele>
        <time>2021-03-30T12:21:54.486Z</time>
      </trkpt>
      <trkpt lat="49.048" lon="7.81245">
        <ele>326.1832217859</ele>
        <time>2021-03-30T12:21:58.724Z</time>
      </trkpt>
      <trkpt lat="49.0482" lon="7.81241">
        <ele>326.91395838073</ele>
        <time>2021-03-30T12:22:02.968Z</time>
      </trkpt>
      <trkpt lat="49.04839" lon="7.81237">
        <ele>327.68783899238</ele>
        <time>2021-03-30T12:22:07.219Z</time>
      </trkpt>
      <trkpt lat="49.04852" lon="7.81228">
        <ele>328.70222537561</ele>
        <time>2021-03-30T12:22:11.475Z</time>
      </trkpt>
      <trkpt lat="49.04864" lon="7.81218">
        <ele>329.93089066935</ele>
        <time>2021-03-30T12:22:15.735Z</time>
      </trkpt>
      <trkpt lat="49.04879" lon="7.81202">
        <ele>331.31440617332</ele>
        <time>2021-03-30T12:22:20.001Z</time>
      </trkpt>
      <trkpt lat="49.04894" lon="7.81181">
        <ele>333.0123667873</ele>
        <time>2021-03-30T12:22:24.274Z</time>
      </trkpt>
      <trkpt lat="49.04905" lon="7.81153">
        <ele>334.76679294308</ele>
        <time>2021-03-30T12:22:28.554Z</time>
      </trkpt>
      <trkpt lat="49.0491" lon="7.81131">
        <ele>336.463500175</ele>
        <time>2021-03-30T12:22:32.839Z</time>
      </trkpt>
      <trkpt lat="49.04918" lon="7.81113">
        <ele>338.11346197319</ele>
        <time>2021-03-30T12:22:37.129Z</time>
      </trkpt>
      <trkpt lat="49.04931" lon="7.8109">
        <ele>339.80059494479</ele>
        <time>2021-03-30T12:22:41.426Z</time>
      </trkpt>
      <trkpt lat="49.04942" lon="7.81068">
        <ele>341.71680770907</ele>
        <time>2021-03-30T12:22:45.729Z</time>
      </trkpt>
      <trkpt lat="49.0495" lon="7.81043">
        <ele>343.62105159353</ele>
        <time>2021-03-30T12:22:50.038Z</time>
      </trkpt>
      <trkpt lat="49.04956" lon="7.81011">
        <ele>345.66014848579</ele>
        <time>2021-03-30T12:22:54.354Z</time>
      </trkpt>
      <trkpt lat="49.04962" lon="7.80975">
        <ele>347.65199331786</ele>
        <time>2021-03-30T12:22:58.678Z</time>
      </trkpt>
      <trkpt lat="49.04966" lon="7.80939">
        <ele>349.74653939233</ele>
        <time>2021-03-30T12:23:03.010Z</time>
      </trkpt>
      <trkpt lat="49.04973" lon="7.80914">
        <ele>351.74276758632</ele>
        <time>2021-03-30T12:23:07.348Z</time>
      </trkpt>
      <trkpt lat="49.04985" lon="7.8089">
        <ele>353.68194706068</ele>
        <time>2021-03-30T12:23:11.693Z</time>
      </trkpt>
      <trkpt lat="49.05002" lon="7.80867">
        <ele>355.4106792527</ele>
        <time>2021-03-30T12:23:16.046Z</time>
      </trkpt>
      <trkpt lat="49.05018" lon="7.80843">
        <ele>357.0325904146</ele>
        <time>2021-03-30T12:23:20.406Z</time>
      </trkpt>
      <trkpt lat="49.05029" lon="7.80825">
        <ele>358.61485198479</ele>
        <time>2021-03-30T12:23:24.771Z</time>
      </trkpt>
      <trkpt lat="49.05029" lon="7.80825">
        <ele>360.33387032952</ele>
        <time>2021-03-30T12:23:29.136Z</time>
      </trkpt>
      <trkpt lat="49.05038" lon="7.80798">
        <ele>362.05298443348</ele>
        <time>2021-03-30T12:23:33.508Z</time>
      </trkpt>
      <trkpt lat="49.0504" lon="7.80774">
        <ele>363.89826625908</ele>
        <time>2021-03-30T12:23:37.885Z</time>
      </trkpt>
      <trkpt lat="49.05039" lon="7.80741">
        <ele>365.86166473308</ele>
        <time>2021-03-30T12:23:42.270Z</time>
      </trkpt>
      <trkpt lat="49.0503" lon="7.80688">
        <ele>368.03782403156</ele>
        <time>2021-03-30T12:23:46.667Z</time>
      </trkpt>
      <trkpt lat="49.05018" lon="7.80626">
        <ele>370.27406492266</ele>
        <time>2021-03-30T12:23:51.078Z</time>
      </trkpt>
      <trkpt lat="49.05006" lon="7.80574">
        <ele>372.44051483619</ele>
        <time>2021-03-30T12:23:55.501Z</time>
      </trkpt>
      <trkpt lat="49.04998" lon="7.80543">
        <ele>374.47265738322</ele>
        <time>2021-03-30T12:23:59.931Z</time>
      </trkpt>
      <trkpt lat="49.04997" lon="7.80529">
        <ele>376.29115836351</ele>
        <time>2021-03-30T12:24:04.364Z</time>
      </trkpt>
      <trkpt lat="49.05002" lon="7.80526">
        <ele>377.91317188499</ele>
        <time>2021-03-30T12:24:08.799Z</time>
      </trkpt>
      <trkpt lat="49.05012" lon="7.8053">
        <ele>379.36537565371</ele>
        <time>2021-03-30T12:24:13.238Z</time>
      </trkpt>
      <trkpt lat="49.05024" lon="7.8054">
        <ele>380.6922100029</ele>
        <time>2021-03-30T12:24:17.681Z</time>
      </trkpt>
      <trkpt lat="49.05035" lon="7.80545">
        <ele>382.00114131439</ele>
        <time>2021-03-30T12:24:22.128Z</time>
      </trkpt>
      <trkpt lat="49.05043" lon="7.80543">
        <ele>383.33184854062</ele>
        <time>2021-03-30T12:24:26.578Z</time>
      </trkpt>
      <trkpt lat="49.05048" lon="7.80532">
        <ele>384.67499410694</ele>
        <time>2021-03-30T12:24:31.031Z</time>
      </trkpt>
      <trkpt lat="49.0505" lon="7.80513">
        <ele>386.07538946851</ele>
        <time>2021-03-30T12:24:35.488Z</time>
      </trkpt>
      <trkpt lat="49.05051" lon="7.80484">
        <ele>387.54124311659</ele>
        <time>2021-03-30T12:24:39.951Z</time>
      </trkpt>
      <trkpt lat="49.05051" lon="7.80456">
        <ele>389.01876811465</ele>
        <time>2021-03-30T12:24:44.420Z</time>
      </trkpt>
      <trkpt lat="49.05054" lon="7.80439">
        <ele>390.3529091036</ele>
        <time>2021-03-30T12:24:48.893Z</time>
      </trkpt>
      <trkpt lat="49.05062" lon="7.80422">
        <ele>391.59917787494</ele>
        <time>2021-03-30T12:24:53.371Z</time>
      </trkpt>
      <trkpt lat="49.05076" lon="7.80398">
        <ele>392.74269764523</ele>
        <time>2021-03-30T12:24:57.856Z</time>
      </trkpt>
      <trkpt lat="49.05087" lon="7.80378">
        <ele>393.85899839804</ele>
        <time>2021-03-30T12:25:02.346Z</time>
      </trkpt>
      <trkpt lat="49.05093" lon="7.80355">
        <ele>395.17026428639</ele>
        <time>2021-03-30T12:25:06.842Z</time>
      </trkpt>
      <trkpt lat="49.05097" lon="7.80324">
        <ele>396.53485908673</ele>
        <time>2021-03-30T12:25:11.345Z</time>
      </trkpt>
      <trkpt lat="49.05095" lon="7.80259">
        <ele>397.83384783795</ele>
        <time>2021-03-30T12:25:15.862Z</time>
      </trkpt>
      <trkpt lat="49.05091" lon="7.80189">
        <ele>398.66680867392</ele>
        <time>2021-03-30T12:25:20.394Z</time>
      </trkpt>
      <trkpt lat="49.05089" lon="7.80151">
        <ele>399.28281292986</ele>
        <time>2021-03-30T12:25:24.935Z</time>
      </trkpt>
      <trkpt lat="49.05084" lon="7.80116">
        <ele>399.84494062256</ele>
        <time>2021-03-30T12:25:29.484Z</time>
      </trkpt>
      <trkpt lat="49.05084" lon="7.80115">
        <ele>400.07781504751</ele>
        <time>2021-03-30T12:25:34.033Z</time>
      </trkpt>
      <trkpt lat="49.05079" lon="7.80075">
        <ele>400.18150011824</ele>
        <time>2021-03-30T12:25:38.591Z</time>
      </trkpt>
      <trkpt lat="49.05079" lon="7.80055">
        <ele>399.80677723207</ele>
        <time>2021-03-30T12:25:43.153Z</time>
      </trkpt>
      <trkpt lat="49.05079" lon="7.80051">
        <ele>398.98769885226</ele>
        <time>2021-03-30T12:25:47.716Z</time>
      </trkpt>
      <trkpt lat="49.05082" lon="7.80038">
        <ele>397.7693580802</ele>
        <time>2021-03-30T12:25:52.282Z</time>
      </trkpt>
      <trkpt lat="49.05086" lon="7.80032">
        <ele>396.12904896456</ele>
        <time>2021-03-30T12:25:56.850Z</time>
      </trkpt>
      <trkpt lat="49.0509" lon="7.80028">
        <ele>394.05813374142</ele>
        <time>2021-03-30T12:26:01.420Z</time>
      </trkpt>
      <trkpt lat="49.05101" lon="7.80023">
        <ele>391.52228623608</ele>
        <time>2021-03-30T12:26:05.993Z</time>
      </trkpt>
      <trkpt lat="49.05132" lon="7.80018">
        <ele>388.54533815044</ele>
        <time>2021-03-30T12:26:10.577Z</time>
      </trkpt>
      <trkpt lat="49.05169" lon="7.80036">
        <ele>384.87217506482</ele>
        <time>2021-03-30T12:26:15.174Z</time>
      </trkpt>
      <trkpt lat="49.05221" lon="7.80043">
        <ele>381.11953445888</ele>
        <time>2021-03-30T12:26:19.788Z</time>
      </trkpt>
      <trkpt lat="49.05223" lon="7.80041">
        <ele>377.78774408401</ele>
        <time>2021-03-30T12:26:24.403Z</time>
      </trkpt>
      <trkpt lat="49.05254" lon="7.80016">
        <ele>374.39771629697</ele>
        <time>2021-03-30T12:26:29.030Z</time>
      </trkpt>
      <trkpt lat="49.05273" lon="7.79981">
        <ele>371.14432999705</ele>
        <time>2021-03-30T12:26:33.667Z</time>
      </trkpt>
      <trkpt lat="49.05291" lon="7.7994">
        <ele>367.99929700379</ele>
        <time>2021-03-30T12:26:38.314Z</time>
      </trkpt>
      <trkpt lat="49.05309" lon="7.79924">
        <ele>364.83982535169</ele>
        <time>2021-03-30T12:26:42.968Z</time>
      </trkpt>
      <trkpt lat="49.05359" lon="7.79898">
        <ele>361.67647111644</ele>
        <time>2021-03-30T12:26:47.640Z</time>
      </trkpt>
      <trkpt lat="49.05379" lon="7.79867">
        <ele>359.08094413659</ele>
        <time>2021-03-30T12:26:52.322Z</time>
      </trkpt>
      <trkpt lat="49.05388" lon="7.79853">
        <ele>356.78900652078</ele>
        <time>2021-03-30T12:26:57.008Z</time>
      </trkpt>
      <trkpt lat="49.05392" lon="7.79829">
        <ele>354.77930605563</ele>
        <time>2021-03-30T12:27:01.699Z</time>
      </trkpt>
      <trkpt lat="49.05396" lon="7.7978">
        <ele>352.9907600091</ele>
        <time>2021-03-30T12:27:06.401Z</time>
      </trkpt>
      <trkpt lat="49.05393" lon="7.79729">
        <ele>351.56925302479</ele>
        <time>2021-03-30T12:27:11.114Z</time>
      </trkpt>
      <trkpt lat="49.05392" lon="7.79703">
        <ele>350.40922385</ele>
        <time>2021-03-30T12:27:15.833Z</time>
      </trkpt>
      <trkpt lat="49.05392" lon="7.79683">
        <ele>349.40386895711</ele>
        <time>2021-03-30T12:27:20.556Z</time>
      </trkpt>
      <trkpt lat="49.05389" lon="7.79669">
        <ele>348.61952083529</ele>
        <time>2021-03-30T12:27:25.283Z</time>
      </trkpt>
      <trkpt lat="49.05375" lon="7.79658">
        <ele>348.10768965418</ele>
        <time>2021-03-30T12:27:30.015Z</time>
      </trkpt>
      <trkpt lat="49.05371" lon="7.79642">
        <ele>347.54408386866</ele>
        <time>2021-03-30T12:27:34.751Z</time>
      </trkpt>
      <trkpt lat="49.05362" lon="7.79605">
        <ele>347.03702693609</ele>
        <time>2021-03-30T12:27:39.495Z</time>
      </trkpt>
      <trkpt lat="49.05355" lon="7.79552">
        <ele>346.33635381766</ele>
        <time>2021-03-30T12:27:44.251Z</time>
      </trkpt>
      <trkpt lat="49.05347" lon="7.79514">
        <ele>345.81140880737</ele>
        <time>2021-03-30T12:27:49.016Z</time>
      </trkpt>
      <trkpt lat="49.05335" lon="7.79436">
        <ele>345.08543087769</ele>
        <time>2021-03-30T12:27:53.798Z</time>
      </trkpt>
      <trkpt lat="49.0532" lon="7.79394">
        <ele>344.6678802788</ele>
        <time>2021-03-30T12:27:58.591Z</time>
      </trkpt>
      <trkpt lat="49.05311" lon="7.79378">
        <ele>344.22075422746</ele>
        <time>2021-03-30T12:28:03.388Z</time>
      </trkpt>
      <trkpt lat="49.05314" lon="7.79364">
        <ele>343.79002751927</ele>
        <time>2021-03-30T12:28:08.189Z</time>
      </trkpt>
      <trkpt lat="49.05318" lon="7.79339">
        <ele>343.46741141041</ele>
        <time>2021-03-30T12:28:12.995Z</time>
      </trkpt>
      <trkpt lat="49.05311" lon="7.79316">
        <ele>343.35860290515</ele>
        <time>2021-03-30T12:28:17.807Z</time>
      </trkpt>
      <trkpt lat="49.05313" lon="7.79291">
        <ele>343.34545297992</ele>
        <time>2021-03-30T12:28:22.625Z</time>
      </trkpt>
      <trkpt lat="49.0531" lon="7.79273">
        <ele>343.59886241765</ele>
        <time>2021-03-30T12:28:27.447Z</time>
      </trkpt>
      <trkpt lat="49.05307" lon="7.7926">
        <ele>344.12529207377</ele>
        <time>2021-03-30T12:28:32.272Z</time>
      </trkpt>
      <trkpt lat="49.05301" lon="7.79239">
        <ele>344.98259065981</ele>
        <time>2021-03-30T12:28:37.102Z</time>
      </trkpt>
      <trkpt lat="49.0528" lon="7.79185">
        <ele>346.3156041087</ele>
        <time>2021-03-30T12:28:41.945Z</time>
      </trkpt>
      <trkpt lat="49.0526" lon="7.79138">
        <ele>347.98626421496</ele>
        <time>2021-03-30T12:28:46.801Z</time>
      </trkpt>
      <trkpt lat="49.05241" lon="7.79105">
        <ele>350.08008278469</ele>
        <time>2021-03-30T12:28:51.666Z</time>
      </trkpt>
      <trkpt lat="49.05222" lon="7.79084">
        <ele>352.39502042398</ele>
        <time>2021-03-30T12:28:56.539Z</time>
      </trkpt>
      <trkpt lat="49.05213" lon="7.79068">
        <ele>355.05767543382</ele>
        <time>2021-03-30T12:29:01.417Z</time>
      </trkpt>
      <trkpt lat="49.05224" lon="7.7906">
        <ele>358.19403762164</ele>
        <time>2021-03-30T12:29:06.299Z</time>
      </trkpt>
      <trkpt lat="49.05243" lon="7.79079">
        <ele>361.59761142099</ele>
        <time>2021-03-30T12:29:11.189Z</time>
      </trkpt>
      <trkpt lat="49.05281" lon="7.7911">
        <ele>365.31089196483</ele>
        <time>2021-03-30T12:29:16.093Z</time>
      </trkpt>
      <trkpt lat="49.05307" lon="7.79117">
        <ele>369.85487429233</ele>
        <time>2021-03-30T12:29:21.006Z</time>
      </trkpt>
      <trkpt lat="49.05332" lon="7.79112">
        <ele>375.17817929297</ele>
        <time>2021-03-30T12:29:25.927Z</time>
      </trkpt>
      <trkpt lat="49.05273" lon="7.79047">
        <ele>382.01877961455</ele>
        <time>2021-03-30T12:29:30.872Z</time>
      </trkpt>
      <trkpt lat="49.05168" lon="7.78954">
        <ele>388.95335949488</ele>
        <time>2021-03-30T12:29:35.858Z</time>
      </trkpt>
      <trkpt lat="49.05125" lon="7.789">
        <ele>396.72339298407</ele>
        <time>2021-03-30T12:29:40.862Z</time>
      </trkpt>
      <trkpt lat="49.05087" lon="7.78853">
        <ele>404.50766642229</ele>
        <time>2021-03-30T12:29:45.883Z</time>
      </trkpt>
      <trkpt lat="49.05068" lon="7.78812">
        <ele>412.54029130096</ele>
        <time>2021-03-30T12:29:50.915Z</time>
      </trkpt>
      <trkpt lat="49.05052" lon="7.78769">
        <ele>420.68343421072</ele>
        <time>2021-03-30T12:29:55.958Z</time>
      </trkpt>
      <trkpt lat="49.05056" lon="7.78714">
        <ele>429.04904173565</ele>
        <time>2021-03-30T12:30:01.013Z</time>
      </trkpt>
      <trkpt lat="49.05072" lon="7.78672">
        <ele>437.21798156483</ele>
        <time>2021-03-30T12:30:06.079Z</time>
      </trkpt>
      <trkpt lat="49.05104" lon="7.78628">
        <ele>445.03153056135</ele>
        <time>2021-03-30T12:30:11.159Z</time>
      </trkpt>
      <trkpt lat="49.05174" lon="7.78567">
        <ele>452.73244951075</ele>
        <time>2021-03-30T12:30:16.266Z</time>
      </trkpt>
      <trkpt lat="49.0529" lon="7.78454">
        <ele>459.73998588372</ele>
        <time>2021-03-30T12:30:21.419Z</time>
      </trkpt>
      <trkpt lat="49.05354" lon="7.78365">
        <ele>465.8993566533</ele>
        <time>2021-03-30T12:30:26.601Z</time>
      </trkpt>
      <trkpt lat="49.05418" lon="7.78235">
        <ele>470.90802024853</ele>
        <time>2021-03-30T12:30:31.818Z</time>
      </trkpt>
      <trkpt lat="49.05437" lon="7.78192">
        <ele>474.55216495091</ele>
        <time>2021-03-30T12:30:37.047Z</time>
      </trkpt>
      <trkpt lat="49.05446" lon="7.78142">
        <ele>476.7188868836</ele>
        <time>2021-03-30T12:30:42.287Z</time>
      </trkpt>
      <trkpt lat="49.05452" lon="7.78108">
        <ele>477.66515049203</ele>
        <time>2021-03-30T12:30:47.535Z</time>
      </trkpt>
      <trkpt lat="49.05441" lon="7.78089">
        <ele>477.48252009297</ele>
        <time>2021-03-30T12:30:52.788Z</time>
      </trkpt>
      <trkpt lat="49.05424" lon="7.78041">
        <ele>475.83260751824</ele>
        <time>2021-03-30T12:30:58.053Z</time>
      </trkpt>
      <trkpt lat="49.05411" lon="7.78018">
        <ele>473.32014580716</ele>
        <time>2021-03-30T12:31:03.325Z</time>
      </trkpt>
      <trkpt lat="49.05392" lon="7.77991">
        <ele>469.98551495287</ele>
        <time>2021-03-30T12:31:08.605Z</time>
      </trkpt>
      <trkpt lat="49.05353" lon="7.7795">
        <ele>465.97282096353</ele>
        <time>2021-03-30T12:31:13.901Z</time>
      </trkpt>
      <trkpt lat="49.05323" lon="7.77921">
        <ele>461.39917582691</ele>
        <time>2021-03-30T12:31:19.209Z</time>
      </trkpt>
      <trkpt lat="49.05299" lon="7.77898">
        <ele>456.47178461282</ele>
        <time>2021-03-30T12:31:24.527Z</time>
      </trkpt>
      <trkpt lat="49.05267" lon="7.77871">
        <ele>451.19776021179</ele>
        <time>2021-03-30T12:31:29.857Z</time>
      </trkpt>
      <trkpt lat="49.05221" lon="7.77829">
        <ele>445.58495730822</ele>
        <time>2021-03-30T12:31:35.205Z</time>
      </trkpt>
      <trkpt lat="49.05193" lon="7.77805">
        <ele>440.1740809159</ele>
        <time>2021-03-30T12:31:40.564Z</time>
      </trkpt>
      <trkpt lat="49.05168" lon="7.77784">
        <ele>434.77867728846</ele>
        <time>2021-03-30T12:31:45.932Z</time>
      </trkpt>
      <trkpt lat="49.05146" lon="7.77769">
        <ele>429.62858851194</ele>
        <time>2021-03-30T12:31:51.308Z</time>
      </trkpt>
      <trkpt lat="49.05123" lon="7.77755">
        <ele>424.71751396808</ele>
        <time>2021-03-30T12:31:56.692Z</time>
      </trkpt>
      <trkpt lat="49.05111" lon="7.77736">
        <ele>419.74792075737</ele>
        <time>2021-03-30T12:32:02.082Z</time>
      </trkpt>
      <trkpt lat="49.05098" lon="7.77717">
        <ele>414.9445389717</ele>
        <time>2021-03-30T12:32:07.478Z</time>
      </trkpt>
      <trkpt lat="49.05084" lon="7.77697">
        <ele>410.31604754828</ele>
        <time>2021-03-30T12:32:12.881Z</time>
      </trkpt>
      <trkpt lat="49.05055" lon="7.77647">
        <ele>405.75766130573</ele>
        <time>2021-03-30T12:32:18.298Z</time>
      </trkpt>
      <trkpt lat="49.05031" lon="7.77619">
        <ele>401.48848431964</ele>
        <time>2021-03-30T12:32:23.725Z</time>
      </trkpt>
      <trkpt lat="49.05011" lon="7.77597">
        <ele>397.43962290445</ele>
        <time>2021-03-30T12:32:29.161Z</time>
      </trkpt>
      <trkpt lat="49.04993" lon="7.77584">
        <ele>393.52371988813</ele>
        <time>2021-03-30T12:32:34.603Z</time>
      </trkpt>
      <trkpt lat="49.04993" lon="7.77584">
        <ele>389.72312851313</ele>
        <time>2021-03-30T12:32:40.045Z</time>
      </trkpt>
      <trkpt lat="49.04977" lon="7.77571">
        <ele>385.8603985347</ele>
        <time>2021-03-30T12:32:45.493Z</time>
      </trkpt>
      <trkpt lat="49.04954" lon="7.77558">
        <ele>381.99548778301</ele>
        <time>2021-03-30T12:32:50.949Z</time>
      </trkpt>
      <trkpt lat="49.0493" lon="7.77533">
        <ele>377.97708934433</ele>
        <time>2021-03-30T12:32:56.415Z</time>
      </trkpt>
      <trkpt lat="49.04916" lon="7.77523">
        <ele>374.17691498487</ele>
        <time>2021-03-30T12:33:01.886Z</time>
      </trkpt>
      <trkpt lat="49.04884" lon="7.77507">
        <ele>370.32072118028</ele>
        <time>2021-03-30T12:33:07.368Z</time>
      </trkpt>
      <trkpt lat="49.04844" lon="7.7749">
        <ele>366.41778624692</ele>
        <time>2021-03-30T12:33:12.864Z</time>
      </trkpt>
      <trkpt lat="49.04829" lon="7.77482">
        <ele>362.92760175619</ele>
        <time>2021-03-30T12:33:18.366Z</time>
      </trkpt>
      <trkpt lat="49.04816" lon="7.77468">
        <ele>359.52656445967</ele>
        <time>2021-03-30T12:33:23.873Z</time>
      </trkpt>
      <trkpt lat="49.04788" lon="7.7745">
        <ele>356.302213118</ele>
        <time>2021-03-30T12:33:29.390Z</time>
      </trkpt>
      <trkpt lat="49.04782" lon="7.77441">
        <ele>353.41147806434</ele>
        <time>2021-03-30T12:33:34.910Z</time>
      </trkpt>
      <trkpt lat="49.04772" lon="7.7743">
        <ele>350.71594918133</ele>
        <time>2021-03-30T12:33:40.434Z</time>
      </trkpt>
      <trkpt lat="49.04765" lon="7.77421">
        <ele>348.27104087301</ele>
        <time>2021-03-30T12:33:45.961Z</time>
      </trkpt>
      <trkpt lat="49.04756" lon="7.77425">
        <ele>346.13218352688</ele>
        <time>2021-03-30T12:33:51.491Z</time>
      </trkpt>
      <trkpt lat="49.04747" lon="7.7743">
        <ele>344.22804358312</ele>
        <time>2021-03-30T12:33:57.024Z</time>
      </trkpt>
      <trkpt lat="49.04746" lon="7.77449">
        <ele>342.58012190276</ele>
        <time>2021-03-30T12:34:02.562Z</time>
      </trkpt>
      <trkpt lat="49.04728" lon="7.77484">
        <ele>341.06726825228</ele>
        <time>2021-03-30T12:34:08.109Z</time>
      </trkpt>
      <trkpt lat="49.04713" lon="7.77478">
        <ele>339.64000203628</ele>
        <time>2021-03-30T12:34:13.661Z</time>
      </trkpt>
      <trkpt lat="49.04709" lon="7.77475">
        <ele>338.5384359542</ele>
        <time>2021-03-30T12:34:19.215Z</time>
      </trkpt>
      <trkpt lat="49.04708" lon="7.77467">
        <ele>337.66491461033</ele>
        <time>2021-03-30T12:34:24.771Z</time>
      </trkpt>
      <trkpt lat="49.04711" lon="7.77452">
        <ele>337.02964720893</ele>
        <time>2021-03-30T12:34:30.330Z</time>
      </trkpt>
      <trkpt lat="49.04698" lon="7.77439">
        <ele>336.48964955215</ele>
        <time>2021-03-30T12:34:35.894Z</time>
      </trkpt>
      <trkpt lat="49.04693" lon="7.77432">
        <ele>336.25952381524</ele>
        <time>2021-03-30T12:34:41.460Z</time>
      </trkpt>
      <trkpt lat="49.04687" lon="7.77443">
        <ele>336.26298253874</ele>
        <time>2021-03-30T12:34:47.030Z</time>
      </trkpt>
      <trkpt lat="49.04677" lon="7.77455">
        <ele>336.50017815886</ele>
        <time>2021-03-30T12:34:52.604Z</time>
      </trkpt>
      <trkpt lat="49.04662" lon="7.77428">
        <ele>337.02493846645</ele>
        <time>2021-03-30T12:34:58.186Z</time>
      </trkpt>
      <trkpt lat="49.0465" lon="7.77409">
        <ele>337.80927891631</ele>
        <time>2021-03-30T12:35:03.774Z</time>
      </trkpt>
      <trkpt lat="49.04633" lon="7.77391">
        <ele>338.84243879012</ele>
        <time>2021-03-30T12:35:09.369Z</time>
      </trkpt>
      <trkpt lat="49.04594" lon="7.77356">
        <ele>340.31972953721</ele>
        <time>2021-03-30T12:35:14.979Z</time>
      </trkpt>
      <trkpt lat="49.04569" lon="7.77341">
        <ele>341.9918232788</ele>
        <time>2021-03-30T12:35:20.598Z</time>
      </trkpt>
      <trkpt lat="49.04569" lon="7.77324">
        <ele>343.6851605457</ele>
        <time>2021-03-30T12:35:26.220Z</time>
      </trkpt>
      <trkpt lat="49.04553" lon="7.77311">
        <ele>345.53270738016</ele>
        <time>2021-03-30T12:35:31.848Z</time>
      </trkpt>
      <trkpt lat="49.04547" lon="7.77301">
        <ele>347.31683509197</ele>
        <time>2021-03-30T12:35:37.479Z</time>
      </trkpt>
      <trkpt lat="49.04541" lon="7.77289">
        <ele>349.08973621456</ele>
        <time>2021-03-30T12:35:43.114Z</time>
      </trkpt>
      <trkpt lat="49.04536" lon="7.77271">
        <ele>350.8503159747</ele>
        <time>2021-03-30T12:35:48.753Z</time>
      </trkpt>
      <trkpt lat="49.04534" lon="7.77237">
        <ele>352.55177637069</ele>
        <time>2021-03-30T12:35:54.399Z</time>
      </trkpt>
      <trkpt lat="49.04539" lon="7.77209">
        <ele>353.94706972951</ele>
        <time>2021-03-30T12:36:00.052Z</time>
      </trkpt>
      <trkpt lat="49.04528" lon="7.77184">
        <ele>355.32255466132</ele>
        <time>2021-03-30T12:36:05.711Z</time>
      </trkpt>
      <trkpt lat="49.04515" lon="7.77147">
        <ele>356.61492755838</ele>
        <time>2021-03-30T12:36:11.380Z</time>
      </trkpt>
      <trkpt lat="49.04511" lon="7.77145">
        <ele>357.73092681834</ele>
        <time>2021-03-30T12:36:17.050Z</time>
      </trkpt>
      <trkpt lat="49.04506" lon="7.77147">
        <ele>358.69551261424</ele>
        <time>2021-03-30T12:36:22.722Z</time>
      </trkpt>
      <trkpt lat="49.04506" lon="7.77173">
        <ele>359.50807811174</ele>
        <time>2021-03-30T12:36:28.399Z</time>
      </trkpt>
      <trkpt lat="49.04506" lon="7.77199">
        <ele>360.18190751267</ele>
        <time>2021-03-30T12:36:34.082Z</time>
      </trkpt>
      <trkpt lat="49.0449" lon="7.77193">
        <ele>360.67046326748</ele>
        <time>2021-03-30T12:36:39.771Z</time>
      </trkpt>
      <trkpt lat="49.04506" lon="7.77199">
        <ele>360.18190751267</ele>
        <time>2021-03-30T12:36:45.465Z</time>
      </trkpt>
      <trkpt lat="49.04506" lon="7.77173">
        <ele>359.50807811174</ele>
        <time>2021-03-30T12:36:51.165Z</time>
      </trkpt>
      <trkpt lat="49.04506" lon="7.77147">
        <ele>358.69551261424</ele>
        <time>2021-03-30T12:36:56.870Z</time>
      </trkpt>
      <trkpt lat="49.04511" lon="7.77145">
        <ele>357.73092681834</ele>
        <time>2021-03-30T12:37:02.577Z</time>
      </trkpt>
      <trkpt lat="49.04515" lon="7.77147">
        <ele>356.61492755838</ele>
        <time>2021-03-30T12:37:08.286Z</time>
      </trkpt>
      <trkpt lat="49.04528" lon="7.77184">
        <ele>355.32255466132</ele>
        <time>2021-03-30T12:37:14.004Z</time>
      </trkpt>
      <trkpt lat="49.04539" lon="7.77209">
        <ele>353.94706972951</ele>
        <time>2021-03-30T12:37:19.729Z</time>
      </trkpt>
      <trkpt lat="49.04534" lon="7.77237">
        <ele>352.55177637069</ele>
        <time>2021-03-30T12:37:25.460Z</time>
      </trkpt>
      <trkpt lat="49.04536" lon="7.77271">
        <ele>350.8503159747</ele>
        <time>2021-03-30T12:37:31.198Z</time>
      </trkpt>
      <trkpt lat="49.04541" lon="7.77289">
        <ele>349.08973621456</ele>
        <time>2021-03-30T12:37:36.941Z</time>
      </trkpt>
      <trkpt lat="49.04547" lon="7.77301">
        <ele>347.31683509197</ele>
        <time>2021-03-30T12:37:42.687Z</time>
      </trkpt>
      <trkpt lat="49.04553" lon="7.77311">
        <ele>345.53270738016</ele>
        <time>2021-03-30T12:37:48.436Z</time>
      </trkpt>
      <trkpt lat="49.04569" lon="7.77324">
        <ele>343.6851605457</ele>
        <time>2021-03-30T12:37:54.191Z</time>
      </trkpt>
      <trkpt lat="49.0456" lon="7.7734">
        <ele>352.6602393333</ele>
        <time>2021-03-30T12:37:59.951Z</time>
      </trkpt>
      <trkpt lat="49.04524" lon="7.77339">
        <ele>351.64704464532</ele>
        <time>2021-03-30T12:38:05.723Z</time>
      </trkpt>
      <trkpt lat="49.04502" lon="7.7734">
        <ele>350.36165967325</ele>
        <time>2021-03-30T12:38:11.502Z</time>
      </trkpt>
      <trkpt lat="49.04481" lon="7.77334">
        <ele>348.92028481178</ele>
        <time>2021-03-30T12:38:17.288Z</time>
      </trkpt>
      <trkpt lat="49.04449" lon="7.77318">
        <ele>347.32401615442</ele>
        <time>2021-03-30T12:38:23.085Z</time>
      </trkpt>
      <trkpt lat="49.04422" lon="7.77295">
        <ele>345.49429047738</ele>
        <time>2021-03-30T12:38:28.893Z</time>
      </trkpt>
      <trkpt lat="49.04393" lon="7.77284">
        <ele>343.32922504895</ele>
        <time>2021-03-30T12:38:34.710Z</time>
      </trkpt>
      <trkpt lat="49.04393" lon="7.77284">
        <ele>341.11074916386</ele>
        <time>2021-03-30T12:38:40.527Z</time>
      </trkpt>
      <trkpt lat="49.04368" lon="7.77284">
        <ele>338.527153277</ele>
        <time>2021-03-30T12:38:46.353Z</time>
      </trkpt>
      <trkpt lat="49.04353" lon="7.77278">
        <ele>335.77153840103</ele>
        <time>2021-03-30T12:38:52.184Z</time>
      </trkpt>
      <trkpt lat="49.04323" lon="7.77262">
        <ele>332.61685855499</ele>
        <time>2021-03-30T12:38:58.025Z</time>
      </trkpt>
      <trkpt lat="49.04293" lon="7.77225">
        <ele>329.22542987105</ele>
        <time>2021-03-30T12:39:03.880Z</time>
      </trkpt>
      <trkpt lat="49.04247" lon="7.77181">
        <ele>325.7035711891</ele>
        <time>2021-03-30T12:39:09.752Z</time>
      </trkpt>
      <trkpt lat="49.04246" lon="7.7718">
        <ele>322.28316554227</ele>
        <time>2021-03-30T12:39:15.625Z</time>
      </trkpt>
      <trkpt lat="49.04234" lon="7.77147">
        <ele>318.59893654543</ele>
        <time>2021-03-30T12:39:21.506Z</time>
      </trkpt>
      <trkpt lat="49.0423" lon="7.77123">
        <ele>314.8325766706</ele>
        <time>2021-03-30T12:39:27.393Z</time>
      </trkpt>
      <trkpt lat="49.04227" lon="7.77091">
        <ele>310.92541014679</ele>
        <time>2021-03-30T12:39:33.287Z</time>
      </trkpt>
      <trkpt lat="49.04225" lon="7.77047">
        <ele>306.91364679998</ele>
        <time>2021-03-30T12:39:39.190Z</time>
      </trkpt>
      <trkpt lat="49.04221" lon="7.77012">
        <ele>302.89747577421</ele>
        <time>2021-03-30T12:39:45.101Z</time>
      </trkpt>
      <trkpt lat="49.04212" lon="7.76968">
        <ele>298.82019951173</ele>
        <time>2021-03-30T12:39:51.022Z</time>
      </trkpt>
      <trkpt lat="49.04203" lon="7.76941">
        <ele>294.7985433187</ele>
        <time>2021-03-30T12:39:56.950Z</time>
      </trkpt>
      <trkpt lat="49.04192" lon="7.76919">
        <ele>290.71434158087</ele>
        <time>2021-03-30T12:40:02.884Z</time>
      </trkpt>
      <trkpt lat="49.04179" lon="7.769">
        <ele>286.6623070554</ele>
        <time>2021-03-30T12:40:08.824Z</time>
      </trkpt>
      <trkpt lat="49.04159" lon="7.76876">
        <ele>282.57653810861</ele>
        <time>2021-03-30T12:40:14.772Z</time>
      </trkpt>
      <trkpt lat="49.04151" lon="7.76859">
        <ele>278.57822303531</ele>
        <time>2021-03-30T12:40:20.725Z</time>
      </trkpt>
      <trkpt lat="49.04142" lon="7.76838">
        <ele>274.55875985788</ele>
        <time>2021-03-30T12:40:26.684Z</time>
      </trkpt>
      <trkpt lat="49.0413" lon="7.76807">
        <ele>270.50333195633</ele>
        <time>2021-03-30T12:40:32.650Z</time>
      </trkpt>
      <trkpt lat="49.04117" lon="7.76771">
        <ele>266.49202000469</ele>
        <time>2021-03-30T12:40:38.625Z</time>
      </trkpt>
      <trkpt lat="49.04106" lon="7.76748">
        <ele>262.53263275905</ele>
        <time>2021-03-30T12:40:44.607Z</time>
      </trkpt>
      <trkpt lat="49.04083" lon="7.76712">
        <ele>258.43392959727</ele>
        <time>2021-03-30T12:40:50.600Z</time>
      </trkpt>
      <trkpt lat="49.04064" lon="7.76686">
        <ele>254.30455183514</ele>
        <time>2021-03-30T12:40:56.601Z</time>
      </trkpt>
      <trkpt lat="49.04048" lon="7.76666">
        <ele>250.1965473393</ele>
        <time>2021-03-30T12:41:02.609Z</time>
      </trkpt>
      <trkpt lat="49.04026" lon="7.76647">
        <ele>246.08870844172</ele>
        <time>2021-03-30T12:41:08.626Z</time>
      </trkpt>
      <trkpt lat="49.04009" lon="7.7663">
        <ele>242.08489613206</ele>
        <time>2021-03-30T12:41:14.650Z</time>
      </trkpt>
      <trkpt lat="49.03992" lon="7.76625">
        <ele>238.07590142733</ele>
        <time>2021-03-30T12:41:20.679Z</time>
      </trkpt>
      <trkpt lat="49.03976" lon="7.76623">
        <ele>234.13665586255</ele>
        <time>2021-03-30T12:41:26.713Z</time>
      </trkpt>
      <trkpt lat="49.03946" lon="7.76626">
        <ele>230.16415272862</ele>
        <time>2021-03-30T12:41:32.758Z</time>
      </trkpt>
      <trkpt lat="49.03935" lon="7.76625">
        <ele>226.58198026324</ele>
        <time>2021-03-30T12:41:38.806Z</time>
      </trkpt>
      <trkpt lat="49.03929" lon="7.76619">
        <ele>223.26641663527</ele>
        <time>2021-03-30T12:41:44.857Z</time>
      </trkpt>
      <trkpt lat="49.03924" lon="7.76615">
        <ele>220.25333556365</ele>
        <time>2021-03-30T12:41:50.909Z</time>
      </trkpt>
      <trkpt lat="49.03919" lon="7.76611">
        <ele>217.58164834892</ele>
        <time>2021-03-30T12:41:56.963Z</time>
      </trkpt>
      <trkpt lat="49.03911" lon="7.76601">
        <ele>215.25679109866</ele>
        <time>2021-03-30T12:42:03.021Z</time>
      </trkpt>
      <trkpt lat="49.03904" lon="7.7659">
        <ele>213.40055808099</ele>
        <time>2021-03-30T12:42:09.082Z</time>
      </trkpt>
      <trkpt lat="49.03901" lon="7.76582">
        <ele>212.12333638157</ele>
        <time>2021-03-30T12:42:15.145Z</time>
      </trkpt>
      <trkpt lat="49.0388" lon="7.76543">
        <ele>211.05700324328</ele>
        <time>2021-03-30T12:42:21.219Z</time>
      </trkpt>
      <trkpt lat="49.03866" lon="7.7652">
        <ele>211.05555854814</ele>
        <time>2021-03-30T12:42:27.300Z</time>
      </trkpt>
      <trkpt lat="49.03846" lon="7.76502">
        <ele>211.95918011667</ele>
        <time>2021-03-30T12:42:33.389Z</time>
      </trkpt>
      <trkpt lat="49.03837" lon="7.76502">
        <ele>213.48827673834</ele>
        <time>2021-03-30T12:42:39.481Z</time>
      </trkpt>
      <trkpt lat="49.03829" lon="7.76503">
        <ele>215.66449636592</ele>
        <time>2021-03-30T12:42:45.576Z</time>
      </trkpt>
      <trkpt lat="49.03822" lon="7.76505">
        <ele>218.45562871109</ele>
        <time>2021-03-30T12:42:51.673Z</time>
      </trkpt>
      <trkpt lat="49.03808" lon="7.76503">
        <ele>221.98581474238</ele>
        <time>2021-03-30T12:42:57.775Z</time>
      </trkpt>
      <trkpt lat="49.03797" lon="7.765">
        <ele>226.05129893885</ele>
        <time>2021-03-30T12:43:03.880Z</time>
      </trkpt>
      <trkpt lat="49.03789" lon="7.76491">
        <ele>230.59238035989</ele>
        <time>2021-03-30T12:43:09.989Z</time>
      </trkpt>
      <trkpt lat="49.0378" lon="7.76475">
        <ele>235.58298736544</ele>
        <time>2021-03-30T12:43:16.102Z</time>
      </trkpt>
      <trkpt lat="49.03772" lon="7.76452">
        <ele>240.97865444244</ele>
        <time>2021-03-30T12:43:22.221Z</time>
      </trkpt>
      <trkpt lat="49.03759" lon="7.76407">
        <ele>246.75360015247</ele>
        <time>2021-03-30T12:43:28.351Z</time>
      </trkpt>
      <trkpt lat="49.03749" lon="7.76355">
        <ele>252.67651934202</ele>
        <time>2021-03-30T12:43:34.493Z</time>
      </trkpt>
      <trkpt lat="49.03748" lon="7.76352">
        <ele>258.43071449319</ele>
        <time>2021-03-30T12:43:40.635Z</time>
      </trkpt>
      <trkpt lat="49.0374" lon="7.76318">
        <ele>264.48001171377</ele>
        <time>2021-03-30T12:43:46.785Z</time>
      </trkpt>
      <trkpt lat="49.0373" lon="7.7629">
        <ele>270.45799157738</ele>
        <time>2021-03-30T12:43:52.942Z</time>
      </trkpt>
      <trkpt lat="49.0372" lon="7.76272">
        <ele>276.20303141487</ele>
        <time>2021-03-30T12:43:59.105Z</time>
      </trkpt>
      <trkpt lat="49.03686" lon="7.76228">
        <ele>282.01135508152</ele>
        <time>2021-03-30T12:44:05.282Z</time>
      </trkpt>
      <trkpt lat="49.03664" lon="7.76197">
        <ele>287.53792575127</ele>
        <time>2021-03-30T12:44:11.469Z</time>
      </trkpt>
      <trkpt lat="49.03644" lon="7.76166">
        <ele>292.73010889731</ele>
        <time>2021-03-30T12:44:17.666Z</time>
      </trkpt>
      <trkpt lat="49.03632" lon="7.76149">
        <ele>297.46214479389</ele>
        <time>2021-03-30T12:44:23.868Z</time>
      </trkpt>
      <trkpt lat="49.03627" lon="7.76141">
        <ele>301.74173777659</ele>
        <time>2021-03-30T12:44:30.073Z</time>
      </trkpt>
      <trkpt lat="49.03616" lon="7.76114">
        <ele>305.74728770013</ele>
        <time>2021-03-30T12:44:36.285Z</time>
      </trkpt>
      <trkpt lat="49.03606" lon="7.76086">
        <ele>309.27891544984</ele>
        <time>2021-03-30T12:44:42.504Z</time>
      </trkpt>
      <trkpt lat="49.03601" lon="7.76064">
        <ele>312.37140233538</ele>
        <time>2021-03-30T12:44:48.728Z</time>
      </trkpt>
      <trkpt lat="49.036" lon="7.76047">
        <ele>315.0746897402</ele>
        <time>2021-03-30T12:44:54.956Z</time>
      </trkpt>
      <trkpt lat="49.03599" lon="7.76032">
        <ele>317.42015094858</ele>
        <time>2021-03-30T12:45:01.187Z</time>
      </trkpt>
      <trkpt lat="49.03599" lon="7.75996">
        <ele>319.56223042071</ele>
        <time>2021-03-30T12:45:07.426Z</time>
      </trkpt>
      <trkpt lat="49.03597" lon="7.75986">
        <ele>321.26997555954</ele>
        <time>2021-03-30T12:45:13.667Z</time>
      </trkpt>
      <trkpt lat="49.03597" lon="7.75982">
        <ele>322.69056691918</ele>
        <time>2021-03-30T12:45:19.909Z</time>
      </trkpt>
      <trkpt lat="49.03597" lon="7.75973">
        <ele>323.90254654668</ele>
        <time>2021-03-30T12:45:26.153Z</time>
      </trkpt>
      <trkpt lat="49.03597" lon="7.75966">
        <ele>324.91065207577</ele>
        <time>2021-03-30T12:45:32.398Z</time>
      </trkpt>
      <trkpt lat="49.03597" lon="7.75958">
        <ele>325.75412693807</ele>
        <time>2021-03-30T12:45:38.645Z</time>
      </trkpt>
      <trkpt lat="49.03596" lon="7.75949">
        <ele>326.44372050369</ele>
        <time>2021-03-30T12:45:44.894Z</time>
      </trkpt>
      <trkpt lat="49.03593" lon="7.75937">
        <ele>327.01990569631</ele>
        <time>2021-03-30T12:45:51.146Z</time>
      </trkpt>
      <trkpt lat="49.03591" lon="7.75927">
        <ele>327.48023710554</ele>
        <time>2021-03-30T12:45:57.400Z</time>
      </trkpt>
      <trkpt lat="49.03596" lon="7.75918">
        <ele>327.92096478078</ele>
        <time>2021-03-30T12:46:03.657Z</time>
      </trkpt>
      <trkpt lat="49.03596" lon="7.7591">
        <ele>328.22882740087</ele>
        <time>2021-03-30T12:46:09.916Z</time>
      </trkpt>
      <trkpt lat="49.03594" lon="7.75901">
        <ele>328.45678643771</ele>
        <time>2021-03-30T12:46:16.177Z</time>
      </trkpt>
      <trkpt lat="49.03591" lon="7.75893">
        <ele>328.60650046637</ele>
        <time>2021-03-30T12:46:22.440Z</time>
      </trkpt>
      <trkpt lat="49.03586" lon="7.75882">
        <ele>328.70572892128</ele>
        <time>2021-03-30T12:46:28.706Z</time>
      </trkpt>
      <trkpt lat="49.03581" lon="7.7587">
        <ele>328.79891822465</ele>
        <time>2021-03-30T12:46:34.975Z</time>
      </trkpt>
      <trkpt lat="49.03575" lon="7.75858">
        <ele>328.81940852279</ele>
        <time>2021-03-30T12:46:41.247Z</time>
      </trkpt>
      <trkpt lat="49.03571" lon="7.75847">
        <ele>328.8440265574</ele>
        <time>2021-03-30T12:46:47.522Z</time>
      </trkpt>
      <trkpt lat="49.03563" lon="7.75833">
        <ele>328.81808439894</ele>
        <time>2021-03-30T12:46:53.801Z</time>
      </trkpt>
      <trkpt lat="49.03558" lon="7.75821">
        <ele>328.84097296077</ele>
        <time>2021-03-30T12:47:00.083Z</time>
      </trkpt>
      <trkpt lat="49.03557" lon="7.7582">
        <ele>328.88505677026</ele>
        <time>2021-03-30T12:47:06.366Z</time>
      </trkpt>
      <trkpt lat="49.03553" lon="7.75809">
        <ele>328.97844554682</ele>
        <time>2021-03-30T12:47:12.651Z</time>
      </trkpt>
      <trkpt lat="49.0355" lon="7.75799">
        <ele>329.11981650671</ele>
        <time>2021-03-30T12:47:18.939Z</time>
      </trkpt>
      <trkpt lat="49.03548" lon="7.75784">
        <ele>329.37345556403</ele>
        <time>2021-03-30T12:47:25.230Z</time>
      </trkpt>
      <trkpt lat="49.03547" lon="7.75769">
        <ele>329.67969506174</ele>
        <time>2021-03-30T12:47:31.524Z</time>
      </trkpt>
      <trkpt lat="49.03546" lon="7.75755">
        <ele>330.03406795066</ele>
        <time>2021-03-30T12:47:37.822Z</time>
      </trkpt>
      <trkpt lat="49.03546" lon="7.75739">
        <ele>330.45033396084</ele>
        <time>2021-03-30T12:47:44.123Z</time>
      </trkpt>
      <trkpt lat="49.03546" lon="7.75723">
        <ele>330.90546546208</ele>
        <time>2021-03-30T12:47:50.428Z</time>
      </trkpt>
      <trkpt lat="49.03546" lon="7.75707">
        <ele>331.37827057368</ele>
        <time>2021-03-30T12:47:56.736Z</time>
      </trkpt>
      <trkpt lat="49.03546" lon="7.7569">
        <ele>331.87052233629</ele>
        <time>2021-03-30T12:48:03.048Z</time>
      </trkpt>
      <trkpt lat="49.03547" lon="7.75675">
        <ele>332.45963073269</ele>
        <time>2021-03-30T12:48:09.363Z</time>
      </trkpt>
      <trkpt lat="49.03547" lon="7.75659">
        <ele>333.07470239147</ele>
        <time>2021-03-30T12:48:15.682Z</time>
      </trkpt>
      <trkpt lat="49.03548" lon="7.75643">
        <ele>333.79208135097</ele>
        <time>2021-03-30T12:48:22.004Z</time>
      </trkpt>
      <trkpt lat="49.03551" lon="7.75626">
        <ele>334.69611576937</ele>
        <time>2021-03-30T12:48:28.330Z</time>
      </trkpt>
      <trkpt lat="49.03555" lon="7.75594">
        <ele>335.61809289479</ele>
        <time>2021-03-30T12:48:34.663Z</time>
      </trkpt>
      <trkpt lat="49.03557" lon="7.75575">
        <ele>336.5833508066</ele>
        <time>2021-03-30T12:48:41.000Z</time>
      </trkpt>
      <trkpt lat="49.03557" lon="7.7556">
        <ele>337.5177875073</ele>
        <time>2021-03-30T12:48:47.341Z</time>
      </trkpt>
      <trkpt lat="49.03557" lon="7.75543">
        <ele>338.51528833578</ele>
        <time>2021-03-30T12:48:53.685Z</time>
      </trkpt>
      <trkpt lat="49.03558" lon="7.75526">
        <ele>339.50888626106</ele>
        <time>2021-03-30T12:49:00.033Z</time>
      </trkpt>
      <trkpt lat="49.0356" lon="7.75511">
        <ele>340.50715600163</ele>
        <time>2021-03-30T12:49:06.384Z</time>
      </trkpt>
      <trkpt lat="49.03561" lon="7.75496">
        <ele>341.44320983273</ele>
        <time>2021-03-30T12:49:12.739Z</time>
      </trkpt>
      <trkpt lat="49.03562" lon="7.75485">
        <ele>342.34758897506</ele>
        <time>2021-03-30T12:49:19.096Z</time>
      </trkpt>
      <trkpt lat="49.03562" lon="7.75482">
        <ele>343.15982349449</ele>
        <time>2021-03-30T12:49:25.454Z</time>
      </trkpt>
      <trkpt lat="49.03563" lon="7.75467">
        <ele>343.95497315942</ele>
        <time>2021-03-30T12:49:31.815Z</time>
      </trkpt>
      <trkpt lat="49.03564" lon="7.75452">
        <ele>344.68049664211</ele>
        <time>2021-03-30T12:49:38.180Z</time>
      </trkpt>
      <trkpt lat="49.03564" lon="7.7544">
        <ele>345.28969090533</ele>
        <time>2021-03-30T12:49:44.547Z</time>
      </trkpt>
      <trkpt lat="49.03564" lon="7.75434">
        <ele>345.82214012381</ele>
        <time>2021-03-30T12:49:50.915Z</time>
      </trkpt>
      <trkpt lat="49.03565" lon="7.75419">
        <ele>346.31227340198</ele>
        <time>2021-03-30T12:49:57.287Z</time>
      </trkpt>
      <trkpt lat="49.03565" lon="7.75406">
        <ele>346.66457463192</ele>
        <time>2021-03-30T12:50:03.662Z</time>
      </trkpt>
      <trkpt lat="49.03566" lon="7.75392">
        <ele>346.97794904046</ele>
        <time>2021-03-30T12:50:10.040Z</time>
      </trkpt>
      <trkpt lat="49.03567" lon="7.75379">
        <ele>347.22512053864</ele>
        <time>2021-03-30T12:50:16.421Z</time>
      </trkpt>
      <trkpt lat="49.03568" lon="7.75364">
        <ele>347.42285237841</ele>
        <time>2021-03-30T12:50:22.805Z</time>
      </trkpt>
      <trkpt lat="49.03567" lon="7.75351">
        <ele>347.54692674448</ele>
        <time>2021-03-30T12:50:29.192Z</time>
      </trkpt>
      <trkpt lat="49.03567" lon="7.75339">
        <ele>347.66692122753</ele>
        <time>2021-03-30T12:50:35.581Z</time>
      </trkpt>
      <trkpt lat="49.03565" lon="7.75326">
        <ele>347.72394320665</ele>
        <time>2021-03-30T12:50:41.973Z</time>
      </trkpt>
      <trkpt lat="49.03563" lon="7.75314">
        <ele>347.75957575108</ele>
        <time>2021-03-30T12:50:48.368Z</time>
      </trkpt>
      <trkpt lat="49.03561" lon="7.753">
        <ele>347.83285751688</ele>
        <time>2021-03-30T12:50:54.766Z</time>
      </trkpt>
      <trkpt lat="49.0356" lon="7.75287">
        <ele>347.93678975481</ele>
        <time>2021-03-30T12:51:01.167Z</time>
      </trkpt>
      <trkpt lat="49.03559" lon="7.75276">
        <ele>348.00773713931</ele>
        <time>2021-03-30T12:51:07.570Z</time>
      </trkpt>
      <trkpt lat="49.03559" lon="7.75262">
        <ele>348.09173039591</ele>
        <time>2021-03-30T12:51:13.977Z</time>
      </trkpt>
      <trkpt lat="49.03559" lon="7.75249">
        <ele>348.13473024055</ele>
        <time>2021-03-30T12:51:20.386Z</time>
      </trkpt>
      <trkpt lat="49.03557" lon="7.75236">
        <ele>348.11380024856</ele>
        <time>2021-03-30T12:51:26.798Z</time>
      </trkpt>
      <trkpt lat="49.03555" lon="7.75225">
        <ele>348.0359636071</ele>
        <time>2021-03-30T12:51:33.213Z</time>
      </trkpt>
      <trkpt lat="49.03554" lon="7.75213">
        <ele>347.91073359804</ele>
        <time>2021-03-30T12:51:39.630Z</time>
      </trkpt>
      <trkpt lat="49.03552" lon="7.75198">
        <ele>347.71910846113</ele>
        <time>2021-03-30T12:51:46.051Z</time>
      </trkpt>
      <trkpt lat="49.03552" lon="7.75184">
        <ele>347.49517459645</ele>
        <time>2021-03-30T12:51:52.475Z</time>
      </trkpt>
      <trkpt lat="49.03551" lon="7.7517">
        <ele>347.14526983481</ele>
        <time>2021-03-30T12:51:58.902Z</time>
      </trkpt>
      <trkpt lat="49.03551" lon="7.75154">
        <ele>346.72203527607</ele>
        <time>2021-03-30T12:52:05.333Z</time>
      </trkpt>
      <trkpt lat="49.03551" lon="7.75138">
        <ele>346.19540028378</ele>
        <time>2021-03-30T12:52:11.767Z</time>
      </trkpt>
      <trkpt lat="49.03551" lon="7.75134">
        <ele>345.63752100126</ele>
        <time>2021-03-30T12:52:18.202Z</time>
      </trkpt>
      <trkpt lat="49.03551" lon="7.75131">
        <ele>345.00609543708</ele>
        <time>2021-03-30T12:52:24.638Z</time>
      </trkpt>
      <trkpt lat="49.03552" lon="7.75115">
        <ele>344.28347348323</ele>
        <time>2021-03-30T12:52:31.077Z</time>
      </trkpt>
      <trkpt lat="49.03553" lon="7.75098">
        <ele>343.47786384701</ele>
        <time>2021-03-30T12:52:37.520Z</time>
      </trkpt>
      <trkpt lat="49.03555" lon="7.75082">
        <ele>342.62415198966</ele>
        <time>2021-03-30T12:52:43.966Z</time>
      </trkpt>
      <trkpt lat="49.03557" lon="7.75068">
        <ele>341.70893450687</ele>
        <time>2021-03-30T12:52:50.416Z</time>
      </trkpt>
      <trkpt lat="49.03561" lon="7.75049">
        <ele>340.73008716688</ele>
        <time>2021-03-30T12:52:56.870Z</time>
      </trkpt>
      <trkpt lat="49.03564" lon="7.75033">
        <ele>339.72740630411</ele>
        <time>2021-03-30T12:53:03.328Z</time>
      </trkpt>
      <trkpt lat="49.03568" lon="7.75017">
        <ele>338.70409721391</ele>
        <time>2021-03-30T12:53:09.789Z</time>
      </trkpt>
      <trkpt lat="49.03572" lon="7.75005">
        <ele>337.71373669701</ele>
        <time>2021-03-30T12:53:16.253Z</time>
      </trkpt>
      <trkpt lat="49.03578" lon="7.74993">
        <ele>336.78419549408</ele>
        <time>2021-03-30T12:53:22.721Z</time>
      </trkpt>
      <trkpt lat="49.03581" lon="7.74986">
        <ele>335.86548529616</ele>
        <time>2021-03-30T12:53:29.190Z</time>
      </trkpt>
      <trkpt lat="49.03588" lon="7.74972">
        <ele>334.97519610382</ele>
        <time>2021-03-30T12:53:35.663Z</time>
      </trkpt>
      <trkpt lat="49.03595" lon="7.74957">
        <ele>334.09975796452</ele>
        <time>2021-03-30T12:53:42.140Z</time>
      </trkpt>
      <trkpt lat="49.036" lon="7.7495">
        <ele>333.35051619547</ele>
        <time>2021-03-30T12:53:48.620Z</time>
      </trkpt>
      <trkpt lat="49.03613" lon="7.74935">
        <ele>332.7056694932</ele>
        <time>2021-03-30T12:53:55.105Z</time>
      </trkpt>
      <trkpt lat="49.03621" lon="7.74925">
        <ele>332.11827336604</ele>
        <time>2021-03-30T12:54:01.593Z</time>
      </trkpt>
      <trkpt lat="49.03637" lon="7.74909">
        <ele>331.63850043782</ele>
        <time>2021-03-30T12:54:08.088Z</time>
      </trkpt>
      <trkpt lat="49.03647" lon="7.74901">
        <ele>331.27999204538</ele>
        <time>2021-03-30T12:54:14.587Z</time>
      </trkpt>
      <trkpt lat="49.03659" lon="7.74896">
        <ele>331.0865928181</ele>
        <time>2021-03-30T12:54:21.090Z</time>
      </trkpt>
      <trkpt lat="49.03667" lon="7.74893">
        <ele>331.04359190641</ele>
        <time>2021-03-30T12:54:27.596Z</time>
      </trkpt>
      <trkpt lat="49.03672" lon="7.74892">
        <ele>331.18303593098</ele>
        <time>2021-03-30T12:54:34.103Z</time>
      </trkpt>
      <trkpt lat="49.03684" lon="7.7489">
        <ele>331.49805432934</ele>
        <time>2021-03-30T12:54:40.614Z</time>
      </trkpt>
      <trkpt lat="49.037" lon="7.74888">
        <ele>332.04985508424</ele>
        <time>2021-03-30T12:54:47.131Z</time>
      </trkpt>
      <trkpt lat="49.03714" lon="7.74885">
        <ele>332.75364853238</ele>
        <time>2021-03-30T12:54:53.652Z</time>
      </trkpt>
      <trkpt lat="49.03731" lon="7.74882">
        <ele>333.6412042079</ele>
        <time>2021-03-30T12:55:00.179Z</time>
      </trkpt>
      <trkpt lat="49.03745" lon="7.7488">
        <ele>334.72662787296</ele>
        <time>2021-03-30T12:55:06.711Z</time>
      </trkpt>
      <trkpt lat="49.03763" lon="7.74874">
        <ele>335.90476002471</ele>
        <time>2021-03-30T12:55:13.249Z</time>
      </trkpt>
      <trkpt lat="49.03773" lon="7.74872">
        <ele>337.2949059034</ele>
        <time>2021-03-30T12:55:19.790Z</time>
      </trkpt>
      <trkpt lat="49.03777" lon="7.74872">
        <ele>338.80858896828</ele>
        <time>2021-03-30T12:55:26.333Z</time>
      </trkpt>
      <trkpt lat="49.03781" lon="7.74872">
        <ele>340.43205803271</ele>
        <time>2021-03-30T12:55:32.877Z</time>
      </trkpt>
      <trkpt lat="49.03788" lon="7.74872">
        <ele>342.17956347208</ele>
        <time>2021-03-30T12:55:39.423Z</time>
      </trkpt>
      <trkpt lat="49.03799" lon="7.74874">
        <ele>344.04866600744</ele>
        <time>2021-03-30T12:55:45.973Z</time>
      </trkpt>
      <trkpt lat="49.03807" lon="7.74874">
        <ele>345.90261854681</ele>
        <time>2021-03-30T12:55:52.526Z</time>
      </trkpt>
      <trkpt lat="49.03816" lon="7.74872">
        <ele>347.75308751252</ele>
        <time>2021-03-30T12:55:59.082Z</time>
      </trkpt>
      <trkpt lat="49.03824" lon="7.74864">
        <ele>349.53367611531</ele>
        <time>2021-03-30T12:56:05.641Z</time>
      </trkpt>
      <trkpt lat="49.03832" lon="7.74855">
        <ele>351.26220252019</ele>
        <time>2021-03-30T12:56:12.203Z</time>
      </trkpt>
      <trkpt lat="49.03836" lon="7.74848">
        <ele>352.83736640625</ele>
        <time>2021-03-30T12:56:18.767Z</time>
      </trkpt>
      <trkpt lat="49.03841" lon="7.7484">
        <ele>354.32687176463</ele>
        <time>2021-03-30T12:56:25.334Z</time>
      </trkpt>
      <trkpt lat="49.03845" lon="7.74831">
        <ele>355.69303221436</ele>
        <time>2021-03-30T12:56:31.903Z</time>
      </trkpt>
      <trkpt lat="49.03849" lon="7.7482">
        <ele>356.98435108815</ele>
        <time>2021-03-30T12:56:38.475Z</time>
      </trkpt>
      <trkpt lat="49.03853" lon="7.74806">
        <ele>358.19130025316</ele>
        <time>2021-03-30T12:56:45.050Z</time>
      </trkpt>
      <trkpt lat="49.03858" lon="7.7479">
        <ele>359.33741469183</ele>
        <time>2021-03-30T12:56:51.629Z</time>
      </trkpt>
      <trkpt lat="49.0386" lon="7.74782">
        <ele>360.40357234311</ele>
        <time>2021-03-30T12:56:58.210Z</time>
      </trkpt>
      <trkpt lat="49.03861" lon="7.74778">
        <ele>361.41796519742</ele>
        <time>2021-03-30T12:57:04.792Z</time>
      </trkpt>
      <trkpt lat="49.03865" lon="7.74761">
        <ele>362.41180066639</ele>
        <time>2021-03-30T12:57:11.378Z</time>
      </trkpt>
      <trkpt lat="49.03869" lon="7.74746">
        <ele>363.42779519643</ele>
        <time>2021-03-30T12:57:17.967Z</time>
      </trkpt>
      <trkpt lat="49.0387" lon="7.74731">
        <ele>364.32976155029</ele>
        <time>2021-03-30T12:57:24.560Z</time>
      </trkpt>
      <trkpt lat="49.03871" lon="7.74724">
        <ele>365.15326134049</ele>
        <time>2021-03-30T12:57:31.154Z</time>
      </trkpt>
      <trkpt lat="49.03866" lon="7.74703">
        <ele>365.79481013013</ele>
        <time>2021-03-30T12:57:37.753Z</time>
      </trkpt>
      <trkpt lat="49.0386" lon="7.7467">
        <ele>366.40532300135</ele>
        <time>2021-03-30T12:57:44.360Z</time>
      </trkpt>
      <trkpt lat="49.03857" lon="7.74653">
        <ele>366.98963123417</ele>
        <time>2021-03-30T12:57:50.970Z</time>
      </trkpt>
      <trkpt lat="49.0385" lon="7.74616">
        <ele>367.46982336711</ele>
        <time>2021-03-30T12:57:57.589Z</time>
      </trkpt>
      <trkpt lat="49.03845" lon="7.74593">
        <ele>367.7322933445</ele>
        <time>2021-03-30T12:58:04.213Z</time>
      </trkpt>
      <trkpt lat="49.03843" lon="7.74581">
        <ele>367.81102488028</ele>
        <time>2021-03-30T12:58:10.840Z</time>
      </trkpt>
      <trkpt lat="49.03837" lon="7.7456">
        <ele>367.60242798908</ele>
        <time>2021-03-30T12:58:17.472Z</time>
      </trkpt>
      <trkpt lat="49.03825" lon="7.74517">
        <ele>367.42215349794</ele>
        <time>2021-03-30T12:58:24.114Z</time>
      </trkpt>
      <trkpt lat="49.03813" lon="7.74471">
        <ele>366.98502107089</ele>
        <time>2021-03-30T12:58:30.767Z</time>
      </trkpt>
      <trkpt lat="49.03813" lon="7.74469">
        <ele>366.175069678</ele>
        <time>2021-03-30T12:58:37.420Z</time>
      </trkpt>
      <trkpt lat="49.03809" lon="7.74457">
        <ele>365.08286427105</ele>
        <time>2021-03-30T12:58:44.076Z</time>
      </trkpt>
      <trkpt lat="49.03802" lon="7.74436">
        <ele>363.73981359971</ele>
        <time>2021-03-30T12:58:50.738Z</time>
      </trkpt>
      <trkpt lat="49.03795" lon="7.74417">
        <ele>361.99543132116</ele>
        <time>2021-03-30T12:58:57.404Z</time>
      </trkpt>
      <trkpt lat="49.03788" lon="7.74404">
        <ele>359.88070438147</ele>
        <time>2021-03-30T12:59:04.074Z</time>
      </trkpt>
      <trkpt lat="49.03783" lon="7.74394">
        <ele>357.53919633659</ele>
        <time>2021-03-30T12:59:10.747Z</time>
      </trkpt>
      <trkpt lat="49.03771" lon="7.7438">
        <ele>354.82945370018</ele>
        <time>2021-03-30T12:59:17.425Z</time>
      </trkpt>
      <trkpt lat="49.03771" lon="7.7438">
        <ele>352.2646671652</ele>
        <time>2021-03-30T12:59:24.103Z</time>
      </trkpt>
      <trkpt lat="49.03762" lon="7.74366">
        <ele>349.52642297335</ele>
        <time>2021-03-30T12:59:30.785Z</time>
      </trkpt>
      <trkpt lat="49.03753" lon="7.74353">
        <ele>346.83170761496</ele>
        <time>2021-03-30T12:59:37.471Z</time>
      </trkpt>
      <trkpt lat="49.03747" lon="7.74343">
        <ele>344.45931462211</ele>
        <time>2021-03-30T12:59:44.160Z</time>
      </trkpt>
      <trkpt lat="49.03741" lon="7.74336">
        <ele>342.45984887998</ele>
        <time>2021-03-30T12:59:50.852Z</time>
      </trkpt>
      <trkpt lat="49.03732" lon="7.74327">
        <ele>340.89367206171</ele>
        <time>2021-03-30T12:59:57.547Z</time>
      </trkpt>
      <trkpt lat="49.03722" lon="7.74319">
        <ele>339.92691837033</ele>
        <time>2021-03-30T13:00:04.246Z</time>
      </trkpt>
      <trkpt lat="49.0372" lon="7.74316">
        <ele>339.82852574295</ele>
        <time>2021-03-30T13:00:10.946Z</time>
      </trkpt>
      <trkpt lat="49.03722" lon="7.74299">
        <ele>340.51231711164</ele>
        <time>2021-03-30T13:00:17.650Z</time>
      </trkpt>
      <trkpt lat="49.0373" lon="7.74286">
        <ele>342.10496555361</ele>
        <time>2021-03-30T13:00:24.358Z</time>
      </trkpt>
      <trkpt lat="49.03758" lon="7.74268">
        <ele>344.85004032113</ele>
        <time>2021-03-30T13:00:31.076Z</time>
      </trkpt>
      <trkpt lat="49.03776" lon="7.74253">
        <ele>348.13496430682</ele>
        <time>2021-03-30T13:00:37.801Z</time>
      </trkpt>
      <trkpt lat="49.03788" lon="7.74235">
        <ele>351.95311553748</ele>
        <time>2021-03-30T13:00:44.531Z</time>
      </trkpt>
      <trkpt lat="49.03813" lon="7.74201">
        <ele>356.57818767063</ele>
        <time>2021-03-30T13:00:51.272Z</time>
      </trkpt>
      <trkpt lat="49.03829" lon="7.74168">
        <ele>361.33052428203</ele>
        <time>2021-03-30T13:00:58.023Z</time>
      </trkpt>
      <trkpt lat="49.0384" lon="7.74133">
        <ele>366.35777878291</ele>
        <time>2021-03-30T13:01:04.782Z</time>
      </trkpt>
      <trkpt lat="49.03855" lon="7.74088">
        <ele>371.90961139349</ele>
        <time>2021-03-30T13:01:11.552Z</time>
      </trkpt>
      <trkpt lat="49.03858" lon="7.74063">
        <ele>377.40081131145</ele>
        <time>2021-03-30T13:01:18.328Z</time>
      </trkpt>
      <trkpt lat="49.03872" lon="7.7402">
        <ele>383.37899266129</ele>
        <time>2021-03-30T13:01:25.114Z</time>
      </trkpt>
      <trkpt lat="49.03874" lon="7.73964">
        <ele>389.09475204971</ele>
        <time>2021-03-30T13:01:31.912Z</time>
      </trkpt>
      <trkpt lat="49.03875" lon="7.7392">
        <ele>394.52239247386</ele>
        <time>2021-03-30T13:01:38.720Z</time>
      </trkpt>
      <trkpt lat="49.03873" lon="7.73881">
        <ele>399.49027266027</ele>
        <time>2021-03-30T13:01:45.537Z</time>
      </trkpt>
      <trkpt lat="49.03865" lon="7.73812">
        <ele>404.43492308016</ele>
        <time>2021-03-30T13:01:52.369Z</time>
      </trkpt>
      <trkpt lat="49.03848" lon="7.73753">
        <ele>408.48121768065</ele>
        <time>2021-03-30T13:01:59.215Z</time>
      </trkpt>
      <trkpt lat="49.0382" lon="7.73712">
        <ele>411.61251226095</ele>
        <time>2021-03-30T13:02:06.074Z</time>
      </trkpt>
      <trkpt lat="49.03791" lon="7.73689">
        <ele>413.94511068941</ele>
        <time>2021-03-30T13:02:12.944Z</time>
      </trkpt>
      <trkpt lat="49.03758" lon="7.73669">
        <ele>415.83468429302</ele>
        <time>2021-03-30T13:02:19.826Z</time>
      </trkpt>
      <trkpt lat="49.03684" lon="7.73624">
        <ele>417.53332245517</ele>
        <time>2021-03-30T13:02:26.734Z</time>
      </trkpt>
      <trkpt lat="49.03631" lon="7.73575">
        <ele>418.35179342471</ele>
        <time>2021-03-30T13:02:33.663Z</time>
      </trkpt>
      <trkpt lat="49.03615" lon="7.73573">
        <ele>418.35272524185</ele>
        <time>2021-03-30T13:02:40.598Z</time>
      </trkpt>
      <trkpt lat="49.03585" lon="7.73573">
        <ele>417.75800961483</ele>
        <time>2021-03-30T13:02:47.543Z</time>
      </trkpt>
      <trkpt lat="49.03552" lon="7.73571">
        <ele>416.66692848435</ele>
        <time>2021-03-30T13:02:54.499Z</time>
      </trkpt>
      <trkpt lat="49.03526" lon="7.73566">
        <ele>415.1391255859</ele>
        <time>2021-03-30T13:03:01.463Z</time>
      </trkpt>
      <trkpt lat="49.03503" lon="7.73563">
        <ele>413.29983432357</ele>
        <time>2021-03-30T13:03:08.435Z</time>
      </trkpt>
      <trkpt lat="49.03468" lon="7.73564">
        <ele>411.12113128106</ele>
        <time>2021-03-30T13:03:15.419Z</time>
      </trkpt>
      <trkpt lat="49.03438" lon="7.73572">
        <ele>408.885338358</ele>
        <time>2021-03-30T13:03:22.413Z</time>
      </trkpt>
      <trkpt lat="49.03414" lon="7.7358">
        <ele>406.70352110104</ele>
        <time>2021-03-30T13:03:29.415Z</time>
      </trkpt>
      <trkpt lat="49.03384" lon="7.73582">
        <ele>404.46087914318</ele>
        <time>2021-03-30T13:03:36.427Z</time>
      </trkpt>
      <trkpt lat="49.03363" lon="7.73577">
        <ele>402.38846344308</ele>
        <time>2021-03-30T13:03:43.446Z</time>
      </trkpt>
      <trkpt lat="49.03347" lon="7.73557">
        <ele>400.58974028236</ele>
        <time>2021-03-30T13:03:50.472Z</time>
      </trkpt>
      <trkpt lat="49.03336" lon="7.73514">
        <ele>399.03686963184</ele>
        <time>2021-03-30T13:03:57.508Z</time>
      </trkpt>
      <trkpt lat="49.0333" lon="7.73472">
        <ele>397.69273970983</ele>
        <time>2021-03-30T13:04:04.554Z</time>
      </trkpt>
      <trkpt lat="49.03328" lon="7.7342">
        <ele>396.45134210654</ele>
        <time>2021-03-30T13:04:11.611Z</time>
      </trkpt>
      <trkpt lat="49.0333" lon="7.73377">
        <ele>395.50534638421</ele>
        <time>2021-03-30T13:04:18.677Z</time>
      </trkpt>
      <trkpt lat="49.03339" lon="7.73343">
        <ele>394.93547782595</ele>
        <time>2021-03-30T13:04:25.752Z</time>
      </trkpt>
      <trkpt lat="49.03351" lon="7.73314">
        <ele>394.68582507338</ele>
        <time>2021-03-30T13:04:32.834Z</time>
      </trkpt>
      <trkpt lat="49.03362" lon="7.73302">
        <ele>395.0283970139</ele>
        <time>2021-03-30T13:04:39.921Z</time>
      </trkpt>
      <trkpt lat="49.03382" lon="7.7329">
        <ele>395.68302253845</ele>
        <time>2021-03-30T13:04:47.015Z</time>
      </trkpt>
      <trkpt lat="49.03405" lon="7.73288">
        <ele>396.74232355909</ele>
        <time>2021-03-30T13:04:54.116Z</time>
      </trkpt>
      <trkpt lat="49.0344" lon="7.73298">
        <ele>398.14794827529</ele>
        <time>2021-03-30T13:05:01.229Z</time>
      </trkpt>
      <trkpt lat="49.0347" lon="7.73313">
        <ele>399.87102665008</ele>
        <time>2021-03-30T13:05:08.353Z</time>
      </trkpt>
      <trkpt lat="49.03522" lon="7.73342">
        <ele>402.03346388239</ele>
        <time>2021-03-30T13:05:15.495Z</time>
      </trkpt>
      <trkpt lat="49.03551" lon="7.73358">
        <ele>404.00460822132</ele>
        <time>2021-03-30T13:05:22.648Z</time>
      </trkpt>
      <trkpt lat="49.03588" lon="7.73372">
        <ele>406.0460920891</ele>
        <time>2021-03-30T13:05:29.813Z</time>
      </trkpt>
      <trkpt lat="49.03614" lon="7.73377">
        <ele>407.68541764669</ele>
        <time>2021-03-30T13:05:36.987Z</time>
      </trkpt>
      <trkpt lat="49.03644" lon="7.7336">
        <ele>408.74441385224</ele>
        <time>2021-03-30T13:05:44.172Z</time>
      </trkpt>
      <trkpt lat="49.03664" lon="7.73339">
        <ele>409.13176316717</ele>
        <time>2021-03-30T13:05:51.365Z</time>
      </trkpt>
      <trkpt lat="49.03691" lon="7.73311">
        <ele>408.88708433219</ele>
        <time>2021-03-30T13:05:58.569Z</time>
      </trkpt>
      <trkpt lat="49.03718" lon="7.73284">
        <ele>407.94526898155</ele>
        <time>2021-03-30T13:06:05.784Z</time>
      </trkpt>
      <trkpt lat="49.03742" lon="7.73268">
        <ele>406.39784592506</ele>
        <time>2021-03-30T13:06:13.007Z</time>
      </trkpt>
      <trkpt lat="49.0377" lon="7.73259">
        <ele>404.47264145811</ele>
        <time>2021-03-30T13:06:20.240Z</time>
      </trkpt>
      <trkpt lat="49.03826" lon="7.7325">
        <ele>402.04601418558</ele>
        <time>2021-03-30T13:06:27.492Z</time>
      </trkpt>
      <trkpt lat="49.03866" lon="7.73244">
        <ele>399.33575860987</ele>
        <time>2021-03-30T13:06:34.757Z</time>
      </trkpt>
      <trkpt lat="49.03866" lon="7.73244">
        <ele>396.46705602422</ele>
        <time>2021-03-30T13:06:42.022Z</time>
      </trkpt>
      <trkpt lat="49.03904" lon="7.73236">
        <ele>393.24441589527</ele>
        <time>2021-03-30T13:06:49.300Z</time>
      </trkpt>
      <trkpt lat="49.03967" lon="7.73215">
        <ele>389.80923429751</ele>
        <time>2021-03-30T13:06:56.599Z</time>
      </trkpt>
      <trkpt lat="49.04004" lon="7.73206">
        <ele>386.72842317432</ele>
        <time>2021-03-30T13:07:03.911Z</time>
      </trkpt>
      <trkpt lat="49.04036" lon="7.73187">
        <ele>383.57284532213</ele>
        <time>2021-03-30T13:07:11.234Z</time>
      </trkpt>
      <trkpt lat="49.04058" lon="7.73181">
        <ele>380.98443914723</ele>
        <time>2021-03-30T13:07:18.565Z</time>
      </trkpt>
      <trkpt lat="49.04088" lon="7.73165">
        <ele>378.69037868809</ele>
        <time>2021-03-30T13:07:25.906Z</time>
      </trkpt>
      <trkpt lat="49.04123" lon="7.73146">
        <ele>376.86612700345</ele>
        <time>2021-03-30T13:07:33.260Z</time>
      </trkpt>
      <trkpt lat="49.04171" lon="7.73115">
        <ele>375.73257208883</ele>
        <time>2021-03-30T13:07:40.631Z</time>
      </trkpt>
      <trkpt lat="49.04211" lon="7.73087">
        <ele>375.15346171907</ele>
        <time>2021-03-30T13:07:48.017Z</time>
      </trkpt>
      <trkpt lat="49.04242" lon="7.73057">
        <ele>375.30191467455</ele>
        <time>2021-03-30T13:07:55.415Z</time>
      </trkpt>
      <trkpt lat="49.04253" lon="7.73042">
        <ele>376.0444938182</ele>
        <time>2021-03-30T13:08:02.818Z</time>
      </trkpt>
      <trkpt lat="49.04252" lon="7.73028">
        <ele>377.26268796068</ele>
        <time>2021-03-30T13:08:10.224Z</time>
      </trkpt>
      <trkpt lat="49.04248" lon="7.7302">
        <ele>378.83080380087</ele>
        <time>2021-03-30T13:08:17.633Z</time>
      </trkpt>
      <trkpt lat="49.04236" lon="7.73007">
        <ele>380.81641415171</ele>
        <time>2021-03-30T13:08:25.046Z</time>
      </trkpt>
      <trkpt lat="49.04192" lon="7.72967">
        <ele>382.96691027222</ele>
        <time>2021-03-30T13:08:32.476Z</time>
      </trkpt>
      <trkpt lat="49.04171" lon="7.72928">
        <ele>385.60197341257</ele>
        <time>2021-03-30T13:08:39.917Z</time>
      </trkpt>
      <trkpt lat="49.04139" lon="7.72857">
        <ele>388.44498930019</ele>
        <time>2021-03-30T13:08:47.377Z</time>
      </trkpt>
      <trkpt lat="49.04119" lon="7.72801">
        <ele>391.18883971747</ele>
        <time>2021-03-30T13:08:54.851Z</time>
      </trkpt>
      <trkpt lat="49.04113" lon="7.72763">
        <ele>394.01352311353</ele>
        <time>2021-03-30T13:09:02.334Z</time>
      </trkpt>
      <trkpt lat="49.0411" lon="7.72719">
        <ele>396.73919510588</ele>
        <time>2021-03-30T13:09:09.827Z</time>
      </trkpt>
      <trkpt lat="49.04111" lon="7.72644">
        <ele>399.56984919039</ele>
        <time>2021-03-30T13:09:17.336Z</time>
      </trkpt>
      <trkpt lat="49.04113" lon="7.72601">
        <ele>402.37197878472</ele>
        <time>2021-03-30T13:09:24.855Z</time>
      </trkpt>
      <trkpt lat="49.0411" lon="7.72528">
        <ele>405.00204605385</ele>
        <time>2021-03-30T13:09:32.389Z</time>
      </trkpt>
      <trkpt lat="49.04105" lon="7.72484">
        <ele>407.36045269474</ele>
        <time>2021-03-30T13:09:39.933Z</time>
      </trkpt>
      <trkpt lat="49.041" lon="7.72441">
        <ele>409.35650463063</ele>
        <time>2021-03-30T13:09:47.487Z</time>
      </trkpt>
      <trkpt lat="49.04097" lon="7.72413">
        <ele>411.07814147122</ele>
        <time>2021-03-30T13:09:55.047Z</time>
      </trkpt>
      <trkpt lat="49.04088" lon="7.72369">
        <ele>412.45092596171</ele>
        <time>2021-03-30T13:10:02.617Z</time>
      </trkpt>
      <trkpt lat="49.04078" lon="7.72338">
        <ele>413.4762554166</ele>
        <time>2021-03-30T13:10:10.195Z</time>
      </trkpt>
      <trkpt lat="49.04066" lon="7.72295">
        <ele>414.0844643441</ele>
        <time>2021-03-30T13:10:17.783Z</time>
      </trkpt>
      <trkpt lat="49.04067" lon="7.72274">
        <ele>414.70413139534</ele>
        <time>2021-03-30T13:10:25.376Z</time>
      </trkpt>
      <trkpt lat="49.04066" lon="7.72266">
        <ele>415.26472089072</ele>
        <time>2021-03-30T13:10:32.970Z</time>
      </trkpt>
      <trkpt lat="49.0406" lon="7.72257">
        <ele>415.8007509638</ele>
        <time>2021-03-30T13:10:40.567Z</time>
      </trkpt>
      <trkpt lat="49.0406" lon="7.72246">
        <ele>416.38055412019</ele>
        <time>2021-03-30T13:10:48.166Z</time>
      </trkpt>
      <trkpt lat="49.04089" lon="7.72227">
        <ele>416.99935132478</ele>
        <time>2021-03-30T13:10:55.776Z</time>
      </trkpt>
      <trkpt lat="49.04102" lon="7.72223">
        <ele>417.81111010885</ele>
        <time>2021-03-30T13:11:03.390Z</time>
      </trkpt>
      <trkpt lat="49.04125" lon="7.72232">
        <ele>418.95061853036</ele>
        <time>2021-03-30T13:11:11.012Z</time>
      </trkpt>
      <trkpt lat="49.04177" lon="7.7223">
        <ele>420.4389754525</ele>
        <time>2021-03-30T13:11:18.652Z</time>
      </trkpt>
      <trkpt lat="49.04201" lon="7.72214">
        <ele>421.87791431096</ele>
        <time>2021-03-30T13:11:26.300Z</time>
      </trkpt>
      <trkpt lat="49.0423" lon="7.72214">
        <ele>423.68756544165</ele>
        <time>2021-03-30T13:11:33.958Z</time>
      </trkpt>
      <trkpt lat="49.04253" lon="7.72208">
        <ele>425.49156246198</ele>
        <time>2021-03-30T13:11:41.624Z</time>
      </trkpt>
      <trkpt lat="49.04282" lon="7.72183">
        <ele>427.34392461965</ele>
        <time>2021-03-30T13:11:49.301Z</time>
      </trkpt>
      <trkpt lat="49.04296" lon="7.72189">
        <ele>429.11430910075</ele>
        <time>2021-03-30T13:11:56.983Z</time>
      </trkpt>
      <trkpt lat="49.04302" lon="7.72198">
        <ele>430.73963164622</ele>
        <time>2021-03-30T13:12:04.668Z</time>
      </trkpt>
      <trkpt lat="49.04329" lon="7.72166">
        <ele>432.31396398326</ele>
        <time>2021-03-30T13:12:12.364Z</time>
      </trkpt>
      <trkpt lat="49.04352" lon="7.72131">
        <ele>433.91037621921</ele>
        <time>2021-03-30T13:12:20.071Z</time>
      </trkpt>
      <trkpt lat="49.04383" lon="7.72071">
        <ele>435.35964962307</ele>
        <time>2021-03-30T13:12:27.795Z</time>
      </trkpt>
      <trkpt lat="49.04415" lon="7.72005">
        <ele>436.40866046627</ele>
        <time>2021-03-30T13:12:35.536Z</time>
      </trkpt>
      <trkpt lat="49.04435" lon="7.71958">
        <ele>437.16915608979</ele>
        <time>2021-03-30T13:12:43.290Z</time>
      </trkpt>
      <trkpt lat="49.04442" lon="7.71934">
        <ele>437.92261987094</ele>
        <time>2021-03-30T13:12:51.050Z</time>
      </trkpt>
      <trkpt lat="49.04447" lon="7.71896">
        <ele>438.73330005687</ele>
        <time>2021-03-30T13:12:58.818Z</time>
      </trkpt>
      <trkpt lat="49.04445" lon="7.71848">
        <ele>439.52787002528</ele>
        <time>2021-03-30T13:13:06.597Z</time>
      </trkpt>
      <trkpt lat="49.04444" lon="7.71735">
        <ele>439.50614627585</ele>
        <time>2021-03-30T13:13:14.400Z</time>
      </trkpt>
      <trkpt lat="49.04444" lon="7.71716">
        <ele>439.64275258308</ele>
        <time>2021-03-30T13:13:22.207Z</time>
      </trkpt>
      <trkpt lat="49.04435" lon="7.71706">
        <ele>439.92418278541</ele>
        <time>2021-03-30T13:13:30.018Z</time>
      </trkpt>
      <trkpt lat="49.04411" lon="7.7163">
        <ele>440.12009156061</ele>
        <time>2021-03-30T13:13:37.848Z</time>
      </trkpt>
      <trkpt lat="49.04392" lon="7.71548">
        <ele>439.83694694761</ele>
        <time>2021-03-30T13:13:45.697Z</time>
      </trkpt>
      <trkpt lat="49.04378" lon="7.7147">
        <ele>439.27546728182</ele>
        <time>2021-03-30T13:13:53.563Z</time>
      </trkpt>
      <trkpt lat="49.04371" lon="7.71399">
        <ele>438.31539368786</ele>
        <time>2021-03-30T13:14:01.445Z</time>
      </trkpt>
      <trkpt lat="49.04366" lon="7.71336">
        <ele>437.18041173753</ele>
        <time>2021-03-30T13:14:09.341Z</time>
      </trkpt>
      <trkpt lat="49.04369" lon="7.71286">
        <ele>435.5900087745</ele>
        <time>2021-03-30T13:14:17.248Z</time>
      </trkpt>
      <trkpt lat="49.04374" lon="7.7123">
        <ele>433.65423082851</ele>
        <time>2021-03-30T13:14:25.167Z</time>
      </trkpt>
      <trkpt lat="49.04379" lon="7.71178">
        <ele>431.45199537416</ele>
        <time>2021-03-30T13:14:33.098Z</time>
      </trkpt>
      <trkpt lat="49.04381" lon="7.71142">
        <ele>429.07001418102</ele>
        <time>2021-03-30T13:14:41.037Z</time>
      </trkpt>
      <trkpt lat="49.04381" lon="7.71142">
        <ele>426.61703604456</ele>
        <time>2021-03-30T13:14:48.976Z</time>
      </trkpt>
      <trkpt lat="49.04384" lon="7.71078">
        <ele>423.77884234632</ele>
        <time>2021-03-30T13:14:56.929Z</time>
      </trkpt>
      <trkpt lat="49.04383" lon="7.71036">
        <ele>421.03227071525</ele>
        <time>2021-03-30T13:15:04.891Z</time>
      </trkpt>
      <trkpt lat="49.04382" lon="7.70993">
        <ele>418.21852925927</ele>
        <time>2021-03-30T13:15:12.863Z</time>
      </trkpt>
      <trkpt lat="49.0438" lon="7.70931">
        <ele>415.36845559372</ele>
        <time>2021-03-30T13:15:20.848Z</time>
      </trkpt>
      <trkpt lat="49.04384" lon="7.70915">
        <ele>412.933938306</ele>
        <time>2021-03-30T13:15:28.837Z</time>
      </trkpt>
      <trkpt lat="49.04385" lon="7.70885">
        <ele>410.67217366382</ele>
        <time>2021-03-30T13:15:36.833Z</time>
      </trkpt>
      <trkpt lat="49.04388" lon="7.7087">
        <ele>408.72088643293</ele>
        <time>2021-03-30T13:15:44.832Z</time>
      </trkpt>
      <trkpt lat="49.04385" lon="7.70849">
        <ele>406.97993365332</ele>
        <time>2021-03-30T13:15:52.836Z</time>
      </trkpt>
      <trkpt lat="49.04395" lon="7.70828">
        <ele>405.56784704395</ele>
        <time>2021-03-30T13:16:00.845Z</time>
      </trkpt>
      <trkpt lat="49.04409" lon="7.70811">
        <ele>404.48150125679</ele>
        <time>2021-03-30T13:16:08.860Z</time>
      </trkpt>
      <trkpt lat="49.04415" lon="7.70796">
        <ele>403.58315370799</ele>
        <time>2021-03-30T13:16:16.879Z</time>
      </trkpt>
      <trkpt lat="49.04424" lon="7.70793">
        <ele>402.95841533915</ele>
        <time>2021-03-30T13:16:24.901Z</time>
      </trkpt>
      <trkpt lat="49.04433" lon="7.70786">
        <ele>402.51543960865</ele>
        <time>2021-03-30T13:16:32.927Z</time>
      </trkpt>
      <trkpt lat="49.04457" lon="7.70766">
        <ele>402.06981413184</ele>
        <time>2021-03-30T13:16:40.962Z</time>
      </trkpt>
      <trkpt lat="49.04488" lon="7.70738">
        <ele>401.91995184647</ele>
        <time>2021-03-30T13:16:49.009Z</time>
      </trkpt>
      <trkpt lat="49.04531" lon="7.70698">
        <ele>401.74733471721</ele>
        <time>2021-03-30T13:16:57.072Z</time>
      </trkpt>
      <trkpt lat="49.04548" lon="7.70665">
        <ele>401.51846361986</ele>
        <time>2021-03-30T13:17:05.145Z</time>
      </trkpt>
      <trkpt lat="49.0457" lon="7.70617">
        <ele>401.14580468419</ele>
        <time>2021-03-30T13:17:13.231Z</time>
      </trkpt>
      <trkpt lat="49.04584" lon="7.70593">
        <ele>400.64090503594</ele>
        <time>2021-03-30T13:17:21.324Z</time>
      </trkpt>
      <trkpt lat="49.04593" lon="7.70586">
        <ele>399.87187884196</ele>
        <time>2021-03-30T13:17:29.420Z</time>
      </trkpt>
      <trkpt lat="49.04598" lon="7.70595">
        <ele>398.77255020271</ele>
        <time>2021-03-30T13:17:37.518Z</time>
      </trkpt>
      <trkpt lat="49.04611" lon="7.70591">
        <ele>397.34147826938</ele>
        <time>2021-03-30T13:17:45.621Z</time>
      </trkpt>
      <trkpt lat="49.04614" lon="7.70557">
        <ele>395.44901898666</ele>
        <time>2021-03-30T13:17:53.731Z</time>
      </trkpt>
      <trkpt lat="49.04614" lon="7.70522">
        <ele>393.01897400435</ele>
        <time>2021-03-30T13:18:01.849Z</time>
      </trkpt>
      <trkpt lat="49.04628" lon="7.70509">
        <ele>390.2087503377</ele>
        <time>2021-03-30T13:18:09.972Z</time>
      </trkpt>
      <trkpt lat="49.04639" lon="7.70498">
        <ele>386.97443074256</ele>
        <time>2021-03-30T13:18:18.100Z</time>
      </trkpt>
      <trkpt lat="49.04643" lon="7.70473">
        <ele>383.23866285632</ele>
        <time>2021-03-30T13:18:26.233Z</time>
      </trkpt>
      <trkpt lat="49.04648" lon="7.70448">
        <ele>379.13220324905</ele>
        <time>2021-03-30T13:18:34.372Z</time>
      </trkpt>
      <trkpt lat="49.04656" lon="7.70425">
        <ele>374.80386541288</ele>
        <time>2021-03-30T13:18:42.517Z</time>
      </trkpt>
      <trkpt lat="49.04665" lon="7.70408">
        <ele>370.56610739608</ele>
        <time>2021-03-30T13:18:50.667Z</time>
      </trkpt>
      <trkpt lat="49.04651" lon="7.70389">
        <ele>365.97636232654</ele>
        <time>2021-03-30T13:18:58.823Z</time>
      </trkpt>
      <trkpt lat="49.04636" lon="7.70371">
        <ele>361.48433859137</ele>
        <time>2021-03-30T13:19:06.985Z</time>
      </trkpt>
      <trkpt lat="49.04626" lon="7.70345">
        <ele>356.91894454197</ele>
        <time>2021-03-30T13:19:15.154Z</time>
      </trkpt>
      <trkpt lat="49.0462" lon="7.70304">
        <ele>352.37448907276</ele>
        <time>2021-03-30T13:19:23.332Z</time>
      </trkpt>
      <trkpt lat="49.04616" lon="7.70261">
        <ele>347.82632574394</ele>
        <time>2021-03-30T13:19:31.520Z</time>
      </trkpt>
      <trkpt lat="49.04603" lon="7.70196">
        <ele>343.45009269121</ele>
        <time>2021-03-30T13:19:39.723Z</time>
      </trkpt>
      <trkpt lat="49.04597" lon="7.7016">
        <ele>339.20062454199</ele>
        <time>2021-03-30T13:19:47.934Z</time>
      </trkpt>
      <trkpt lat="49.04589" lon="7.70137">
        <ele>335.23378693447</ele>
        <time>2021-03-30T13:19:56.151Z</time>
      </trkpt>
      <trkpt lat="49.04575" lon="7.70106">
        <ele>331.41452581997</ele>
        <time>2021-03-30T13:20:04.376Z</time>
      </trkpt>
      <trkpt lat="49.04545" lon="7.70068">
        <ele>327.65788257223</ele>
        <time>2021-03-30T13:20:12.614Z</time>
      </trkpt>
      <trkpt lat="49.04519" lon="7.7005">
        <ele>324.05069278253</ele>
        <time>2021-03-30T13:20:20.862Z</time>
      </trkpt>
      <trkpt lat="49.04494" lon="7.7004">
        <ele>320.40285447956</ele>
        <time>2021-03-30T13:20:29.118Z</time>
      </trkpt>
      <trkpt lat="49.04469" lon="7.70039">
        <ele>316.97976381198</ele>
        <time>2021-03-30T13:20:37.382Z</time>
      </trkpt>
      <trkpt lat="49.04469" lon="7.70039">
        <ele>313.6664107854</ele>
        <time>2021-03-30T13:20:45.646Z</time>
      </trkpt>
      <trkpt lat="49.04442" lon="7.70034">
        <ele>310.25869632532</ele>
        <time>2021-03-30T13:20:53.919Z</time>
      </trkpt>
      <trkpt lat="49.04402" lon="7.70021">
        <ele>306.67270879672</ele>
        <time>2021-03-30T13:21:02.206Z</time>
      </trkpt>
      <trkpt lat="49.04381" lon="7.70006">
        <ele>303.02133216383</ele>
        <time>2021-03-30T13:21:10.501Z</time>
      </trkpt>
      <trkpt lat="49.04355" lon="7.69989">
        <ele>299.34756071162</ele>
        <time>2021-03-30T13:21:18.805Z</time>
      </trkpt>
      <trkpt lat="49.04334" lon="7.69948">
        <ele>295.28381961552</ele>
        <time>2021-03-30T13:21:27.121Z</time>
      </trkpt>
      <trkpt lat="49.04314" lon="7.69922">
        <ele>291.50868234742</ele>
        <time>2021-03-30T13:21:35.445Z</time>
      </trkpt>
      <trkpt lat="49.04261" lon="7.69897">
        <ele>287.76545415138</ele>
        <time>2021-03-30T13:21:43.788Z</time>
      </trkpt>
      <trkpt lat="49.04226" lon="7.69883">
        <ele>283.98843275984</ele>
        <time>2021-03-30T13:21:52.143Z</time>
      </trkpt>
      <trkpt lat="49.04184" lon="7.69851">
        <ele>280.19066922578</ele>
        <time>2021-03-30T13:22:00.514Z</time>
      </trkpt>
      <trkpt lat="49.0416" lon="7.6984">
        <ele>276.69675778857</ele>
        <time>2021-03-30T13:22:08.893Z</time>
      </trkpt>
      <trkpt lat="49.04099" lon="7.69827">
        <ele>273.30044448116</ele>
        <time>2021-03-30T13:22:17.293Z</time>
      </trkpt>
      <trkpt lat="49.04071" lon="7.69814">
        <ele>269.80599629226</ele>
        <time>2021-03-30T13:22:25.702Z</time>
      </trkpt>
      <trkpt lat="49.0402" lon="7.69777">
        <ele>266.57079406049</ele>
        <time>2021-03-30T13:22:34.130Z</time>
      </trkpt>
      <trkpt lat="49.03967" lon="7.69745">
        <ele>263.79811942508</ele>
        <time>2021-03-30T13:22:42.577Z</time>
      </trkpt>
      <trkpt lat="49.0394" lon="7.69736">
        <ele>261.48103637297</ele>
        <time>2021-03-30T13:22:51.033Z</time>
      </trkpt>
      <trkpt lat="49.03911" lon="7.69724">
        <ele>259.50979916225</ele>
        <time>2021-03-30T13:22:59.500Z</time>
      </trkpt>
      <trkpt lat="49.03905" lon="7.69722">
        <ele>258.00261818308</ele>
        <time>2021-03-30T13:23:07.968Z</time>
      </trkpt>
      <trkpt lat="49.03904" lon="7.69722">
        <ele>256.84656539781</ele>
        <time>2021-03-30T13:23:16.437Z</time>
      </trkpt>
      <trkpt lat="49.03879" lon="7.69711">
        <ele>256.00742766699</ele>
        <time>2021-03-30T13:23:24.914Z</time>
      </trkpt>
      <trkpt lat="49.03845" lon="7.69694">
        <ele>255.53059017278</ele>
        <time>2021-03-30T13:23:33.403Z</time>
      </trkpt>
      <trkpt lat="49.03822" lon="7.69676">
        <ele>255.19962931857</ele>
        <time>2021-03-30T13:23:41.901Z</time>
      </trkpt>
      <trkpt lat="49.0381" lon="7.69659">
        <ele>255.02035850526</ele>
        <time>2021-03-30T13:23:50.405Z</time>
      </trkpt>
      <trkpt lat="49.03802" lon="7.69639">
        <ele>255.03453782558</ele>
        <time>2021-03-30T13:23:58.914Z</time>
      </trkpt>
      <trkpt lat="49.03797" lon="7.69628">
        <ele>255.19434039947</ele>
        <time>2021-03-30T13:24:07.426Z</time>
      </trkpt>
      <trkpt lat="49.03792" lon="7.69616">
        <ele>255.4362644053</ele>
        <time>2021-03-30T13:24:15.941Z</time>
      </trkpt>
      <trkpt lat="49.03784" lon="7.69589">
        <ele>255.71392900191</ele>
        <time>2021-03-30T13:24:24.462Z</time>
      </trkpt>
      <trkpt lat="49.0378" lon="7.69576">
        <ele>255.99579049809</ele>
        <time>2021-03-30T13:24:32.986Z</time>
      </trkpt>
      <trkpt lat="49.03776" lon="7.69561">
        <ele>256.27548195549</ele>
        <time>2021-03-30T13:24:41.514Z</time>
      </trkpt>
      <trkpt lat="49.03764" lon="7.69523">
        <ele>256.55412980843</ele>
        <time>2021-03-30T13:24:50.051Z</time>
      </trkpt>
      <trkpt lat="49.03755" lon="7.69497">
        <ele>256.95379253201</ele>
        <time>2021-03-30T13:24:58.595Z</time>
      </trkpt>
      <trkpt lat="49.03747" lon="7.69477">
        <ele>257.30271969862</ele>
        <time>2021-03-30T13:25:07.144Z</time>
      </trkpt>
      <trkpt lat="49.03737" lon="7.69448">
        <ele>257.51299507184</ele>
        <time>2021-03-30T13:25:15.700Z</time>
      </trkpt>
      <trkpt lat="49.03729" lon="7.69423">
        <ele>257.6826192983</ele>
        <time>2021-03-30T13:25:24.262Z</time>
      </trkpt>
      <trkpt lat="49.03727" lon="7.69414">
        <ele>257.84635444499</ele>
        <time>2021-03-30T13:25:32.826Z</time>
      </trkpt>
      <trkpt lat="49.03726" lon="7.69408">
        <ele>257.94878311987</ele>
        <time>2021-03-30T13:25:41.392Z</time>
      </trkpt>
      <trkpt lat="49.03724" lon="7.69376">
        <ele>257.94449781647</ele>
        <time>2021-03-30T13:25:49.965Z</time>
      </trkpt>
      <trkpt lat="49.0372" lon="7.69335">
        <ele>257.85021947219</ele>
        <time>2021-03-30T13:25:58.547Z</time>
      </trkpt>
      <trkpt lat="49.03716" lon="7.69311">
        <ele>257.59265428425</ele>
        <time>2021-03-30T13:26:07.134Z</time>
      </trkpt>
      <trkpt lat="49.03713" lon="7.69297">
        <ele>257.18168987723</ele>
        <time>2021-03-30T13:26:15.724Z</time>
      </trkpt>
      <trkpt lat="49.03708" lon="7.69278">
        <ele>256.57881910561</ele>
        <time>2021-03-30T13:26:24.319Z</time>
      </trkpt>
      <trkpt lat="49.03699" lon="7.69254">
        <ele>255.76857827253</ele>
        <time>2021-03-30T13:26:32.920Z</time>
      </trkpt>
      <trkpt lat="49.03689" lon="7.69226">
        <ele>254.88740833957</ele>
        <time>2021-03-30T13:26:41.528Z</time>
      </trkpt>
      <trkpt lat="49.03682" lon="7.6921">
        <ele>254.02188472025</ele>
        <time>2021-03-30T13:26:50.140Z</time>
      </trkpt>
      <trkpt lat="49.0367" lon="7.69186">
        <ele>253.03872202803</ele>
        <time>2021-03-30T13:26:58.759Z</time>
      </trkpt>
      <trkpt lat="49.03662" lon="7.6917">
        <ele>252.07975216462</ele>
        <time>2021-03-30T13:27:07.382Z</time>
      </trkpt>
      <trkpt lat="49.03652" lon="7.69154">
        <ele>251.15448148869</ele>
        <time>2021-03-30T13:27:16.010Z</time>
      </trkpt>
      <trkpt lat="49.03643" lon="7.69143">
        <ele>250.32414210596</ele>
        <time>2021-03-30T13:27:24.642Z</time>
      </trkpt>
      <trkpt lat="49.03635" lon="7.69134">
        <ele>249.56816852099</ele>
        <time>2021-03-30T13:27:33.277Z</time>
      </trkpt>
      <trkpt lat="49.03621" lon="7.69124">
        <ele>248.84422925306</ele>
        <time>2021-03-30T13:27:41.917Z</time>
      </trkpt>
      <trkpt lat="49.03616" lon="7.69118">
        <ele>248.195253018</ele>
        <time>2021-03-30T13:27:50.559Z</time>
      </trkpt>
      <trkpt lat="49.0361" lon="7.69117">
        <ele>247.58509885319</ele>
        <time>2021-03-30T13:27:59.203Z</time>
      </trkpt>
      <trkpt lat="49.03605" lon="7.69112">
        <ele>247.00556732199</ele>
        <time>2021-03-30T13:28:07.849Z</time>
      </trkpt>
      <trkpt lat="49.03602" lon="7.69106">
        <ele>246.47649934606</ele>
        <time>2021-03-30T13:28:16.497Z</time>
      </trkpt>
      <trkpt lat="49.036" lon="7.69102">
        <ele>246.00908775318</ele>
        <time>2021-03-30T13:28:25.146Z</time>
      </trkpt>
      <trkpt lat="49.03599" lon="7.69091">
        <ele>245.58512788726</ele>
        <time>2021-03-30T13:28:33.797Z</time>
      </trkpt>
      <trkpt lat="49.03594" lon="7.69091">
        <ele>245.25142045778</ele>
        <time>2021-03-30T13:28:42.450Z</time>
      </trkpt>
      <trkpt lat="49.03586" lon="7.69089">
        <ele>244.99691041779</ele>
        <time>2021-03-30T13:28:51.106Z</time>
      </trkpt>
    </trkseg>
  </trk>
</gpx>